<?xml version="1.0" encoding="UTF-8" standalone="no" ?>
<gpx xmlns="http://www.topografix.com/GPX/1/1" xmlns:xsi="http://www.w3.org/2001/XMLSchema-instance" xsi:schemaLocation="http://www.topografix.com/GPX/1/1 http://www.topografix.com/GPX/1/1/gpx.xsd" version="1.1" creator="VisuGPX - https://www.visugpx.com">
  <metadata>
    <name>Dondas - Sabré - 16 août 2017</name>
    <desc><![CDATA[Dondas - Sabré - 16 août 2017 -------------]]></desc>
  </metadata>
  <trk>
    <name><![CDATA[2017-08-16T08:37:56Z]]></name>
    <trkseg>
      <trkpt lat="44.22" lon="0.84551">
        <ele>168.924</ele>
        <time>2017-08-16T08:37:56Z</time>
      </trkpt>
      <trkpt lat="44.22" lon="0.84551">
        <ele>168.963</ele>
        <time>2017-08-16T08:37:57Z</time>
      </trkpt>
      <trkpt lat="44.21996" lon="0.84557">
        <ele>170.39</ele>
        <time>2017-08-16T08:38:03Z</time>
      </trkpt>
      <trkpt lat="44.21986" lon="0.84554">
        <ele>171.468</ele>
        <time>2017-08-16T08:38:10Z</time>
      </trkpt>
      <trkpt lat="44.21986" lon="0.84563">
        <ele>171.222</ele>
        <time>2017-08-16T08:38:15Z</time>
      </trkpt>
      <trkpt lat="44.21992" lon="0.84584">
        <ele>170.822</ele>
        <time>2017-08-16T08:38:24Z</time>
      </trkpt>
      <trkpt lat="44.21997" lon="0.84604">
        <ele>170.492</ele>
        <time>2017-08-16T08:38:32Z</time>
      </trkpt>
      <trkpt lat="44.22" lon="0.84614">
        <ele>170.312</ele>
        <time>2017-08-16T08:38:36Z</time>
      </trkpt>
      <trkpt lat="44.22007" lon="0.84622">
        <ele>170.239</ele>
        <time>2017-08-16T08:38:41Z</time>
      </trkpt>
      <trkpt lat="44.22024" lon="0.84645">
        <ele>170.663</ele>
        <time>2017-08-16T08:38:49Z</time>
      </trkpt>
      <trkpt lat="44.22035" lon="0.84657">
        <ele>171.999</ele>
        <time>2017-08-16T08:38:56Z</time>
      </trkpt>
      <trkpt lat="44.22044" lon="0.84668">
        <ele>174.157</ele>
        <time>2017-08-16T08:39:03Z</time>
      </trkpt>
      <trkpt lat="44.22053" lon="0.84684">
        <ele>175.966</ele>
        <time>2017-08-16T08:39:09Z</time>
      </trkpt>
      <trkpt lat="44.22047" lon="0.84706">
        <ele>176.577</ele>
        <time>2017-08-16T08:39:15Z</time>
      </trkpt>
      <trkpt lat="44.2204" lon="0.84734">
        <ele>177.891</ele>
        <time>2017-08-16T08:39:23Z</time>
      </trkpt>
      <trkpt lat="44.22034" lon="0.84761">
        <ele>178.542</ele>
        <time>2017-08-16T08:39:30Z</time>
      </trkpt>
      <trkpt lat="44.22027" lon="0.84782">
        <ele>179.311</ele>
        <time>2017-08-16T08:39:37Z</time>
      </trkpt>
      <trkpt lat="44.22012" lon="0.84815">
        <ele>179.502</ele>
        <time>2017-08-16T08:39:48Z</time>
      </trkpt>
      <trkpt lat="44.22001" lon="0.84844">
        <ele>178.78</ele>
        <time>2017-08-16T08:39:57Z</time>
      </trkpt>
      <trkpt lat="44.21988" lon="0.84882">
        <ele>177.746</ele>
        <time>2017-08-16T08:40:08Z</time>
      </trkpt>
      <trkpt lat="44.21979" lon="0.84902">
        <ele>178.027</ele>
        <time>2017-08-16T08:40:14Z</time>
      </trkpt>
      <trkpt lat="44.21969" lon="0.84923">
        <ele>177.616</ele>
        <time>2017-08-16T08:40:20Z</time>
      </trkpt>
      <trkpt lat="44.21964" lon="0.84932">
        <ele>177.486</ele>
        <time>2017-08-16T08:40:23Z</time>
      </trkpt>
      <trkpt lat="44.21971" lon="0.84948">
        <ele>177.698</ele>
        <time>2017-08-16T08:40:28Z</time>
      </trkpt>
      <trkpt lat="44.21991" lon="0.84977">
        <ele>178.958</ele>
        <time>2017-08-16T08:40:38Z</time>
      </trkpt>
      <trkpt lat="44.22001" lon="0.84991">
        <ele>179.44</ele>
        <time>2017-08-16T08:40:44Z</time>
      </trkpt>
      <trkpt lat="44.22011" lon="0.85005">
        <ele>179.868</ele>
        <time>2017-08-16T08:40:50Z</time>
      </trkpt>
      <trkpt lat="44.22027" lon="0.85028">
        <ele>179.966</ele>
        <time>2017-08-16T08:40:57Z</time>
      </trkpt>
      <trkpt lat="44.22054" lon="0.85063">
        <ele>179.964</ele>
        <time>2017-08-16T08:41:07Z</time>
      </trkpt>
      <trkpt lat="44.22079" lon="0.85085">
        <ele>179.494</ele>
        <time>2017-08-16T08:41:15Z</time>
      </trkpt>
      <trkpt lat="44.22115" lon="0.85114">
        <ele>179.416</ele>
        <time>2017-08-16T08:41:26Z</time>
      </trkpt>
      <trkpt lat="44.22146" lon="0.85147">
        <ele>179.825</ele>
        <time>2017-08-16T08:41:36Z</time>
      </trkpt>
      <trkpt lat="44.22168" lon="0.8518">
        <ele>180.61</ele>
        <time>2017-08-16T08:41:44Z</time>
      </trkpt>
      <trkpt lat="44.22194" lon="0.85226">
        <ele>182.425</ele>
        <time>2017-08-16T08:41:55Z</time>
      </trkpt>
      <trkpt lat="44.22219" lon="0.85272">
        <ele>184.925</ele>
        <time>2017-08-16T08:42:08Z</time>
      </trkpt>
      <trkpt lat="44.22233" lon="0.853">
        <ele>186.746</ele>
        <time>2017-08-16T08:42:16Z</time>
      </trkpt>
      <trkpt lat="44.22246" lon="0.85332">
        <ele>188.885</ele>
        <time>2017-08-16T08:42:25Z</time>
      </trkpt>
      <trkpt lat="44.22262" lon="0.85375">
        <ele>191.624</ele>
        <time>2017-08-16T08:42:37Z</time>
      </trkpt>
      <trkpt lat="44.22271" lon="0.85406">
        <ele>192.545</ele>
        <time>2017-08-16T08:42:46Z</time>
      </trkpt>
      <trkpt lat="44.22278" lon="0.85439">
        <ele>191.567</ele>
        <time>2017-08-16T08:42:53Z</time>
      </trkpt>
      <trkpt lat="44.22287" lon="0.85481">
        <ele>190.194</ele>
        <time>2017-08-16T08:42:59Z</time>
      </trkpt>
      <trkpt lat="44.22299" lon="0.85547">
        <ele>189.479</ele>
        <time>2017-08-16T08:43:07Z</time>
      </trkpt>
      <trkpt lat="44.22308" lon="0.85608">
        <ele>190.113</ele>
        <time>2017-08-16T08:43:15Z</time>
      </trkpt>
      <trkpt lat="44.2232" lon="0.85701">
        <ele>192.043</ele>
        <time>2017-08-16T08:43:28Z</time>
      </trkpt>
      <trkpt lat="44.22338" lon="0.85779">
        <ele>193.302</ele>
        <time>2017-08-16T08:43:40Z</time>
      </trkpt>
      <trkpt lat="44.22358" lon="0.85865">
        <ele>194.077</ele>
        <time>2017-08-16T08:43:54Z</time>
      </trkpt>
      <trkpt lat="44.22368" lon="0.85905">
        <ele>194.599</ele>
        <time>2017-08-16T08:44:02Z</time>
      </trkpt>
      <trkpt lat="44.22378" lon="0.85939">
        <ele>195.219</ele>
        <time>2017-08-16T08:44:11Z</time>
      </trkpt>
      <trkpt lat="44.22387" lon="0.85969">
        <ele>195.334</ele>
        <time>2017-08-16T08:44:18Z</time>
      </trkpt>
      <trkpt lat="44.22398" lon="0.86008">
        <ele>193.965</ele>
        <time>2017-08-16T08:44:24Z</time>
      </trkpt>
      <trkpt lat="44.22412" lon="0.86062">
        <ele>191.564</ele>
        <time>2017-08-16T08:44:30Z</time>
      </trkpt>
      <trkpt lat="44.22431" lon="0.8614">
        <ele>188.872</ele>
        <time>2017-08-16T08:44:37Z</time>
      </trkpt>
      <trkpt lat="44.2244" lon="0.86204">
        <ele>189.093</ele>
        <time>2017-08-16T08:44:43Z</time>
      </trkpt>
      <trkpt lat="44.22446" lon="0.86252">
        <ele>189.814</ele>
        <time>2017-08-16T08:44:49Z</time>
      </trkpt>
      <trkpt lat="44.22457" lon="0.86337">
        <ele>189.917</ele>
        <time>2017-08-16T08:45:01Z</time>
      </trkpt>
      <trkpt lat="44.22459" lon="0.86362">
        <ele>189.494</ele>
        <time>2017-08-16T08:45:04Z</time>
      </trkpt>
      <trkpt lat="44.2245" lon="0.864">
        <ele>189.73</ele>
        <time>2017-08-16T08:45:09Z</time>
      </trkpt>
      <trkpt lat="44.22438" lon="0.86438">
        <ele>190.807</ele>
        <time>2017-08-16T08:45:15Z</time>
      </trkpt>
      <trkpt lat="44.22434" lon="0.86456">
        <ele>191.612</ele>
        <time>2017-08-16T08:45:18Z</time>
      </trkpt>
      <trkpt lat="44.22439" lon="0.86483">
        <ele>192.738</ele>
        <time>2017-08-16T08:45:23Z</time>
      </trkpt>
      <trkpt lat="44.22468" lon="0.86537">
        <ele>194.876</ele>
        <time>2017-08-16T08:45:35Z</time>
      </trkpt>
      <trkpt lat="44.22497" lon="0.86579">
        <ele>196.165</ele>
        <time>2017-08-16T08:45:46Z</time>
      </trkpt>
      <trkpt lat="44.2253" lon="0.86616">
        <ele>196.59</ele>
        <time>2017-08-16T08:45:57Z</time>
      </trkpt>
      <trkpt lat="44.22556" lon="0.86638">
        <ele>196.399</ele>
        <time>2017-08-16T08:46:04Z</time>
      </trkpt>
      <trkpt lat="44.22602" lon="0.86664">
        <ele>196.407</ele>
        <time>2017-08-16T08:46:14Z</time>
      </trkpt>
      <trkpt lat="44.22641" lon="0.86686">
        <ele>197.277</ele>
        <time>2017-08-16T08:46:23Z</time>
      </trkpt>
      <trkpt lat="44.22672" lon="0.86706">
        <ele>198.937</ele>
        <time>2017-08-16T08:46:32Z</time>
      </trkpt>
      <trkpt lat="44.22687" lon="0.86716">
        <ele>199.737</ele>
        <time>2017-08-16T08:46:38Z</time>
      </trkpt>
      <trkpt lat="44.22703" lon="0.86727">
        <ele>200.648</ele>
        <time>2017-08-16T08:46:46Z</time>
      </trkpt>
      <trkpt lat="44.22725" lon="0.86743">
        <ele>201.93</ele>
        <time>2017-08-16T08:46:57Z</time>
      </trkpt>
      <trkpt lat="44.2274" lon="0.8676">
        <ele>204.011</ele>
        <time>2017-08-16T08:47:05Z</time>
      </trkpt>
      <trkpt lat="44.22752" lon="0.86778">
        <ele>204.458</ele>
        <time>2017-08-16T08:47:12Z</time>
      </trkpt>
      <trkpt lat="44.22765" lon="0.86804">
        <ele>205.044</ele>
        <time>2017-08-16T08:47:21Z</time>
      </trkpt>
      <trkpt lat="44.22775" lon="0.86827">
        <ele>204.935</ele>
        <time>2017-08-16T08:47:28Z</time>
      </trkpt>
      <trkpt lat="44.22786" lon="0.86865">
        <ele>206.046</ele>
        <time>2017-08-16T08:47:38Z</time>
      </trkpt>
      <trkpt lat="44.22794" lon="0.86905">
        <ele>206.948</ele>
        <time>2017-08-16T08:47:48Z</time>
      </trkpt>
      <trkpt lat="44.22804" lon="0.86949">
        <ele>207.519</ele>
        <time>2017-08-16T08:47:57Z</time>
      </trkpt>
      <trkpt lat="44.22808" lon="0.86985">
        <ele>206.856</ele>
        <time>2017-08-16T08:48:04Z</time>
      </trkpt>
      <trkpt lat="44.2281" lon="0.87035">
        <ele>206.139</ele>
        <time>2017-08-16T08:48:14Z</time>
      </trkpt>
      <trkpt lat="44.22813" lon="0.87099">
        <ele>208.509</ele>
        <time>2017-08-16T08:48:27Z</time>
      </trkpt>
      <trkpt lat="44.22818" lon="0.87149">
        <ele>209.168</ele>
        <time>2017-08-16T08:48:37Z</time>
      </trkpt>
      <trkpt lat="44.22826" lon="0.87202">
        <ele>208.911</ele>
        <time>2017-08-16T08:48:48Z</time>
      </trkpt>
      <trkpt lat="44.22835" lon="0.87261">
        <ele>208.509</ele>
        <time>2017-08-16T08:48:59Z</time>
      </trkpt>
      <trkpt lat="44.22844" lon="0.87317">
        <ele>208.339</ele>
        <time>2017-08-16T08:49:09Z</time>
      </trkpt>
      <trkpt lat="44.22855" lon="0.87388">
        <ele>208.569</ele>
        <time>2017-08-16T08:49:23Z</time>
      </trkpt>
      <trkpt lat="44.22867" lon="0.87459">
        <ele>208.927</ele>
        <time>2017-08-16T08:49:37Z</time>
      </trkpt>
      <trkpt lat="44.22874" lon="0.87502">
        <ele>209.199</ele>
        <time>2017-08-16T08:49:44Z</time>
      </trkpt>
      <trkpt lat="44.22886" lon="0.87575">
        <ele>209.82</ele>
        <time>2017-08-16T08:49:56Z</time>
      </trkpt>
      <trkpt lat="44.2289" lon="0.87625">
        <ele>210.77</ele>
        <time>2017-08-16T08:50:04Z</time>
      </trkpt>
      <trkpt lat="44.22888" lon="0.87693">
        <ele>213.372</ele>
        <time>2017-08-16T08:50:15Z</time>
      </trkpt>
      <trkpt lat="44.22889" lon="0.8774">
        <ele>215.581</ele>
        <time>2017-08-16T08:50:23Z</time>
      </trkpt>
      <trkpt lat="44.22894" lon="0.87791">
        <ele>215.86</ele>
        <time>2017-08-16T08:50:32Z</time>
      </trkpt>
      <trkpt lat="44.22896" lon="0.87852">
        <ele>216.04</ele>
        <time>2017-08-16T08:50:43Z</time>
      </trkpt>
      <trkpt lat="44.22893" lon="0.8791">
        <ele>217.251</ele>
        <time>2017-08-16T08:50:53Z</time>
      </trkpt>
      <trkpt lat="44.22891" lon="0.87962">
        <ele>217.641</ele>
        <time>2017-08-16T08:51:02Z</time>
      </trkpt>
      <trkpt lat="44.22889" lon="0.88014">
        <ele>217.431</ele>
        <time>2017-08-16T08:51:11Z</time>
      </trkpt>
      <trkpt lat="44.22885" lon="0.88085">
        <ele>217.401</ele>
        <time>2017-08-16T08:51:22Z</time>
      </trkpt>
      <trkpt lat="44.2288" lon="0.88151">
        <ele>218.101</ele>
        <time>2017-08-16T08:51:33Z</time>
      </trkpt>
      <trkpt lat="44.22875" lon="0.88214">
        <ele>219.172</ele>
        <time>2017-08-16T08:51:44Z</time>
      </trkpt>
      <trkpt lat="44.22869" lon="0.88283">
        <ele>220.792</ele>
        <time>2017-08-16T08:51:56Z</time>
      </trkpt>
      <trkpt lat="44.22876" lon="0.88302">
        <ele>221.162</ele>
        <time>2017-08-16T08:52:00Z</time>
      </trkpt>
      <trkpt lat="44.22883" lon="0.88301">
        <ele>221.042</ele>
        <time>2017-08-16T08:52:02Z</time>
      </trkpt>
      <trkpt lat="44.22918" lon="0.88284">
        <ele>219.26</ele>
        <time>2017-08-16T08:52:11Z</time>
      </trkpt>
      <trkpt lat="44.2295" lon="0.8827">
        <ele>217.269</ele>
        <time>2017-08-16T08:52:17Z</time>
      </trkpt>
      <trkpt lat="44.22996" lon="0.8826">
        <ele>215.475</ele>
        <time>2017-08-16T08:52:24Z</time>
      </trkpt>
      <trkpt lat="44.23057" lon="0.88259">
        <ele>214.09</ele>
        <time>2017-08-16T08:52:32Z</time>
      </trkpt>
      <trkpt lat="44.23122" lon="0.88257">
        <ele>213.351</ele>
        <time>2017-08-16T08:52:41Z</time>
      </trkpt>
      <trkpt lat="44.23178" lon="0.88249">
        <ele>213.583</ele>
        <time>2017-08-16T08:52:50Z</time>
      </trkpt>
      <trkpt lat="44.23222" lon="0.8824">
        <ele>213.603</ele>
        <time>2017-08-16T08:52:58Z</time>
      </trkpt>
      <trkpt lat="44.23269" lon="0.88235">
        <ele>213.192</ele>
        <time>2017-08-16T08:53:07Z</time>
      </trkpt>
      <trkpt lat="44.23292" lon="0.88247">
        <ele>212.882</ele>
        <time>2017-08-16T08:53:12Z</time>
      </trkpt>
      <trkpt lat="44.23315" lon="0.88273">
        <ele>212.973</ele>
        <time>2017-08-16T08:53:18Z</time>
      </trkpt>
      <trkpt lat="44.23338" lon="0.88316">
        <ele>213.473</ele>
        <time>2017-08-16T08:53:26Z</time>
      </trkpt>
      <trkpt lat="44.23361" lon="0.88372">
        <ele>214.763</ele>
        <time>2017-08-16T08:53:36Z</time>
      </trkpt>
      <trkpt lat="44.23389" lon="0.88429">
        <ele>216.103</ele>
        <time>2017-08-16T08:53:47Z</time>
      </trkpt>
      <trkpt lat="44.23411" lon="0.88471">
        <ele>214.943</ele>
        <time>2017-08-16T08:53:55Z</time>
      </trkpt>
      <trkpt lat="44.23432" lon="0.88523">
        <ele>214.954</ele>
        <time>2017-08-16T08:54:04Z</time>
      </trkpt>
      <trkpt lat="44.23452" lon="0.88585">
        <ele>215.975</ele>
        <time>2017-08-16T08:54:15Z</time>
      </trkpt>
      <trkpt lat="44.23474" lon="0.88626">
        <ele>217.085</ele>
        <time>2017-08-16T08:54:23Z</time>
      </trkpt>
      <trkpt lat="44.23499" lon="0.88668">
        <ele>216.803</ele>
        <time>2017-08-16T08:54:31Z</time>
      </trkpt>
      <trkpt lat="44.23524" lon="0.88714">
        <ele>214.752</ele>
        <time>2017-08-16T08:54:38Z</time>
      </trkpt>
      <trkpt lat="44.23551" lon="0.88763">
        <ele>211.71</ele>
        <time>2017-08-16T08:54:44Z</time>
      </trkpt>
      <trkpt lat="44.23583" lon="0.8881">
        <ele>208.37</ele>
        <time>2017-08-16T08:54:49Z</time>
      </trkpt>
      <trkpt lat="44.23635" lon="0.88881">
        <ele>205.454</ele>
        <time>2017-08-16T08:54:56Z</time>
      </trkpt>
      <trkpt lat="44.23664" lon="0.88923">
        <ele>206.508</ele>
        <time>2017-08-16T08:55:01Z</time>
      </trkpt>
      <trkpt lat="44.23679" lon="0.88947">
        <ele>207.718</ele>
        <time>2017-08-16T08:55:05Z</time>
      </trkpt>
      <trkpt lat="44.2369" lon="0.88963">
        <ele>208.447</ele>
        <time>2017-08-16T08:55:10Z</time>
      </trkpt>
      <trkpt lat="44.2371" lon="0.88993">
        <ele>208.625</ele>
        <time>2017-08-16T08:55:19Z</time>
      </trkpt>
      <trkpt lat="44.2373" lon="0.8902">
        <ele>207.223</ele>
        <time>2017-08-16T08:55:24Z</time>
      </trkpt>
      <trkpt lat="44.23768" lon="0.89069">
        <ele>206.486</ele>
        <time>2017-08-16T08:55:31Z</time>
      </trkpt>
      <trkpt lat="44.2381" lon="0.8912">
        <ele>207.337</ele>
        <time>2017-08-16T08:55:39Z</time>
      </trkpt>
      <trkpt lat="44.23846" lon="0.89162">
        <ele>208.627</ele>
        <time>2017-08-16T08:55:47Z</time>
      </trkpt>
      <trkpt lat="44.23873" lon="0.89193">
        <ele>210.329</ele>
        <time>2017-08-16T08:55:54Z</time>
      </trkpt>
      <trkpt lat="44.23895" lon="0.89217">
        <ele>212.309</ele>
        <time>2017-08-16T08:56:02Z</time>
      </trkpt>
      <trkpt lat="44.23923" lon="0.89246">
        <ele>215.509</ele>
        <time>2017-08-16T08:56:14Z</time>
      </trkpt>
      <trkpt lat="44.23948" lon="0.8927">
        <ele>218.429</ele>
        <time>2017-08-16T08:56:25Z</time>
      </trkpt>
      <trkpt lat="44.2397" lon="0.89291">
        <ele>220.288</ele>
        <time>2017-08-16T08:56:35Z</time>
      </trkpt>
      <trkpt lat="44.23981" lon="0.89305">
        <ele>220.708</ele>
        <time>2017-08-16T08:56:44Z</time>
      </trkpt>
      <trkpt lat="44.23988" lon="0.89316">
        <ele>220.588</ele>
        <time>2017-08-16T08:56:53Z</time>
      </trkpt>
      <trkpt lat="44.23998" lon="0.89334">
        <ele>220.338</ele>
        <time>2017-08-16T08:57:02Z</time>
      </trkpt>
      <trkpt lat="44.24013" lon="0.89359">
        <ele>220.029</ele>
        <time>2017-08-16T08:57:14Z</time>
      </trkpt>
      <trkpt lat="44.24027" lon="0.89376">
        <ele>219.478</ele>
        <time>2017-08-16T08:57:21Z</time>
      </trkpt>
      <trkpt lat="44.24052" lon="0.89396">
        <ele>218.688</ele>
        <time>2017-08-16T08:57:28Z</time>
      </trkpt>
      <trkpt lat="44.2409" lon="0.89418">
        <ele>218.218</ele>
        <time>2017-08-16T08:57:36Z</time>
      </trkpt>
      <trkpt lat="44.24127" lon="0.89425">
        <ele>218.239</ele>
        <time>2017-08-16T08:57:43Z</time>
      </trkpt>
      <trkpt lat="44.24172" lon="0.89431">
        <ele>218.789</ele>
        <time>2017-08-16T08:57:52Z</time>
      </trkpt>
      <trkpt lat="44.24208" lon="0.89449">
        <ele>219.62</ele>
        <time>2017-08-16T08:58:00Z</time>
      </trkpt>
      <trkpt lat="44.24228" lon="0.89468">
        <ele>220.449</ele>
        <time>2017-08-16T08:58:06Z</time>
      </trkpt>
      <trkpt lat="44.24244" lon="0.89499">
        <ele>221.39</ele>
        <time>2017-08-16T08:58:14Z</time>
      </trkpt>
      <trkpt lat="44.24255" lon="0.89543">
        <ele>221.93</ele>
        <time>2017-08-16T08:58:24Z</time>
      </trkpt>
      <trkpt lat="44.24261" lon="0.89582">
        <ele>222.68</ele>
        <time>2017-08-16T08:58:33Z</time>
      </trkpt>
      <trkpt lat="44.24268" lon="0.89612">
        <ele>223.52</ele>
        <time>2017-08-16T08:58:40Z</time>
      </trkpt>
      <trkpt lat="44.2428" lon="0.89656">
        <ele>224.32</ele>
        <time>2017-08-16T08:58:50Z</time>
      </trkpt>
      <trkpt lat="44.24281" lon="0.89662">
        <ele>224.39</ele>
        <time>2017-08-16T08:58:51Z</time>
      </trkpt>
      <trkpt lat="44.24285" lon="0.89711">
        <ele>225.512</ele>
        <time>2017-08-16T08:59:00Z</time>
      </trkpt>
      <trkpt lat="44.2428" lon="0.89741">
        <ele>226.812</ele>
        <time>2017-08-16T08:59:06Z</time>
      </trkpt>
      <trkpt lat="44.24276" lon="0.89765">
        <ele>227.381</ele>
        <time>2017-08-16T08:59:11Z</time>
      </trkpt>
      <trkpt lat="44.24272" lon="0.898">
        <ele>227.41</ele>
        <time>2017-08-16T08:59:17Z</time>
      </trkpt>
      <trkpt lat="44.24273" lon="0.89852">
        <ele>226.889</ele>
        <time>2017-08-16T08:59:25Z</time>
      </trkpt>
      <trkpt lat="44.24282" lon="0.89914">
        <ele>225.049</ele>
        <time>2017-08-16T08:59:33Z</time>
      </trkpt>
      <trkpt lat="44.24301" lon="0.89999">
        <ele>222.859</ele>
        <time>2017-08-16T08:59:43Z</time>
      </trkpt>
      <trkpt lat="44.24319" lon="0.90056">
        <ele>221.466</ele>
        <time>2017-08-16T08:59:50Z</time>
      </trkpt>
      <trkpt lat="44.24346" lon="0.90143">
        <ele>219.851</ele>
        <time>2017-08-16T09:00:00Z</time>
      </trkpt>
      <trkpt lat="44.24371" lon="0.90244">
        <ele>220.592</ele>
        <time>2017-08-16T09:00:11Z</time>
      </trkpt>
      <trkpt lat="44.24381" lon="0.90308">
        <ele>222.122</ele>
        <time>2017-08-16T09:00:19Z</time>
      </trkpt>
      <trkpt lat="44.24384" lon="0.90365">
        <ele>223.012</ele>
        <time>2017-08-16T09:00:27Z</time>
      </trkpt>
      <trkpt lat="44.2439" lon="0.90444">
        <ele>222.61</ele>
        <time>2017-08-16T09:00:39Z</time>
      </trkpt>
      <trkpt lat="44.244" lon="0.90489">
        <ele>220.819</ele>
        <time>2017-08-16T09:00:45Z</time>
      </trkpt>
      <trkpt lat="44.24415" lon="0.90554">
        <ele>218.289</ele>
        <time>2017-08-16T09:00:52Z</time>
      </trkpt>
      <trkpt lat="44.24434" lon="0.90645">
        <ele>215.881</ele>
        <time>2017-08-16T09:01:01Z</time>
      </trkpt>
      <trkpt lat="44.2445" lon="0.90694">
        <ele>214.33</ele>
        <time>2017-08-16T09:01:06Z</time>
      </trkpt>
      <trkpt lat="44.24502" lon="0.90768">
        <ele>211.351</ele>
        <time>2017-08-16T09:01:15Z</time>
      </trkpt>
      <trkpt lat="44.24546" lon="0.90812">
        <ele>210.472</ele>
        <time>2017-08-16T09:01:22Z</time>
      </trkpt>
      <trkpt lat="44.24603" lon="0.90866">
        <ele>211.433</ele>
        <time>2017-08-16T09:01:32Z</time>
      </trkpt>
      <trkpt lat="44.24641" lon="0.90898">
        <ele>213.023</ele>
        <time>2017-08-16T09:01:40Z</time>
      </trkpt>
      <trkpt lat="44.2468" lon="0.90929">
        <ele>215.024</ele>
        <time>2017-08-16T09:01:50Z</time>
      </trkpt>
      <trkpt lat="44.24708" lon="0.90947">
        <ele>216.966</ele>
        <time>2017-08-16T09:01:58Z</time>
      </trkpt>
      <trkpt lat="44.24743" lon="0.90955">
        <ele>218.274</ele>
        <time>2017-08-16T09:02:08Z</time>
      </trkpt>
      <trkpt lat="44.24781" lon="0.90954">
        <ele>218.305</ele>
        <time>2017-08-16T09:02:17Z</time>
      </trkpt>
      <trkpt lat="44.24814" lon="0.9094">
        <ele>218.455</ele>
        <time>2017-08-16T09:02:25Z</time>
      </trkpt>
      <trkpt lat="44.24849" lon="0.90922">
        <ele>218.455</ele>
        <time>2017-08-16T09:02:34Z</time>
      </trkpt>
      <trkpt lat="44.24892" lon="0.90901">
        <ele>219.815</ele>
        <time>2017-08-16T09:02:45Z</time>
      </trkpt>
      <trkpt lat="44.24924" lon="0.90888">
        <ele>221.045</ele>
        <time>2017-08-16T09:02:54Z</time>
      </trkpt>
      <trkpt lat="44.24943" lon="0.90882">
        <ele>221.976</ele>
        <time>2017-08-16T09:03:00Z</time>
      </trkpt>
      <trkpt lat="44.24974" lon="0.90878">
        <ele>223.136</ele>
        <time>2017-08-16T09:03:10Z</time>
      </trkpt>
      <trkpt lat="44.25004" lon="0.90882">
        <ele>224.457</ele>
        <time>2017-08-16T09:03:20Z</time>
      </trkpt>
      <trkpt lat="44.25039" lon="0.90894">
        <ele>224.766</ele>
        <time>2017-08-16T09:03:31Z</time>
      </trkpt>
      <trkpt lat="44.25079" lon="0.90903">
        <ele>224.826</ele>
        <time>2017-08-16T09:03:41Z</time>
      </trkpt>
      <trkpt lat="44.25116" lon="0.90905">
        <ele>225.136</ele>
        <time>2017-08-16T09:03:50Z</time>
      </trkpt>
      <trkpt lat="44.25156" lon="0.90905">
        <ele>225.286</ele>
        <time>2017-08-16T09:04:00Z</time>
      </trkpt>
      <trkpt lat="44.25194" lon="0.90911">
        <ele>224.616</ele>
        <time>2017-08-16T09:04:09Z</time>
      </trkpt>
      <trkpt lat="44.25231" lon="0.90928">
        <ele>223.796</ele>
        <time>2017-08-16T09:04:17Z</time>
      </trkpt>
      <trkpt lat="44.25273" lon="0.90961">
        <ele>222.725</ele>
        <time>2017-08-16T09:04:26Z</time>
      </trkpt>
      <trkpt lat="44.25314" lon="0.91003">
        <ele>220.626</ele>
        <time>2017-08-16T09:04:35Z</time>
      </trkpt>
      <trkpt lat="44.25365" lon="0.91062">
        <ele>218.546</ele>
        <time>2017-08-16T09:04:47Z</time>
      </trkpt>
      <trkpt lat="44.25409" lon="0.91106">
        <ele>219.057</ele>
        <time>2017-08-16T09:04:57Z</time>
      </trkpt>
      <trkpt lat="44.25452" lon="0.91148">
        <ele>219.467</ele>
        <time>2017-08-16T09:05:08Z</time>
      </trkpt>
      <trkpt lat="44.25485" lon="0.9118">
        <ele>217.806</ele>
        <time>2017-08-16T09:05:15Z</time>
      </trkpt>
      <trkpt lat="44.25509" lon="0.91214">
        <ele>215.976</ele>
        <time>2017-08-16T09:05:20Z</time>
      </trkpt>
      <trkpt lat="44.25537" lon="0.91275">
        <ele>214.337</ele>
        <time>2017-08-16T09:05:27Z</time>
      </trkpt>
      <trkpt lat="44.25561" lon="0.91334">
        <ele>213.718</ele>
        <time>2017-08-16T09:05:34Z</time>
      </trkpt>
      <trkpt lat="44.25582" lon="0.91386">
        <ele>214.439</ele>
        <time>2017-08-16T09:05:40Z</time>
      </trkpt>
      <trkpt lat="44.25591" lon="0.91411">
        <ele>215.52</ele>
        <time>2017-08-16T09:05:43Z</time>
      </trkpt>
      <trkpt lat="44.25596" lon="0.91445">
        <ele>217.18</ele>
        <time>2017-08-16T09:05:48Z</time>
      </trkpt>
      <trkpt lat="44.25589" lon="0.91468">
        <ele>218.719</ele>
        <time>2017-08-16T09:05:53Z</time>
      </trkpt>
      <trkpt lat="44.25571" lon="0.91486">
        <ele>220.128</ele>
        <time>2017-08-16T09:06:00Z</time>
      </trkpt>
      <trkpt lat="44.25543" lon="0.91502">
        <ele>220.569</ele>
        <time>2017-08-16T09:06:09Z</time>
      </trkpt>
      <trkpt lat="44.25512" lon="0.91523">
        <ele>219.989</ele>
        <time>2017-08-16T09:06:18Z</time>
      </trkpt>
      <trkpt lat="44.25499" lon="0.91542">
        <ele>219.889</ele>
        <time>2017-08-16T09:06:23Z</time>
      </trkpt>
      <trkpt lat="44.2549" lon="0.91576">
        <ele>219.859</ele>
        <time>2017-08-16T09:06:30Z</time>
      </trkpt>
      <trkpt lat="44.25477" lon="0.91637">
        <ele>220.219</ele>
        <time>2017-08-16T09:06:41Z</time>
      </trkpt>
      <trkpt lat="44.25472" lon="0.91686">
        <ele>221.32</ele>
        <time>2017-08-16T09:06:50Z</time>
      </trkpt>
      <trkpt lat="44.25481" lon="0.9171">
        <ele>222.24</ele>
        <time>2017-08-16T09:06:55Z</time>
      </trkpt>
      <trkpt lat="44.25504" lon="0.91732">
        <ele>223.52</ele>
        <time>2017-08-16T09:07:03Z</time>
      </trkpt>
      <trkpt lat="44.25535" lon="0.9176">
        <ele>222.769</ele>
        <time>2017-08-16T09:07:12Z</time>
      </trkpt>
      <trkpt lat="44.25578" lon="0.91803">
        <ele>222.009</ele>
        <time>2017-08-16T09:07:24Z</time>
      </trkpt>
      <trkpt lat="44.25618" lon="0.91846">
        <ele>221.679</ele>
        <time>2017-08-16T09:07:34Z</time>
      </trkpt>
      <trkpt lat="44.2563" lon="0.91879">
        <ele>221.349</ele>
        <time>2017-08-16T09:07:39Z</time>
      </trkpt>
      <trkpt lat="44.25629" lon="0.91894">
        <ele>221.369</ele>
        <time>2017-08-16T09:07:41Z</time>
      </trkpt>
      <trkpt lat="44.25626" lon="0.91917">
        <ele>221.379</ele>
        <time>2017-08-16T09:07:44Z</time>
      </trkpt>
      <trkpt lat="44.25631" lon="0.91946">
        <ele>221.69</ele>
        <time>2017-08-16T09:07:48Z</time>
      </trkpt>
      <trkpt lat="44.25648" lon="0.91962">
        <ele>222.03</ele>
        <time>2017-08-16T09:07:52Z</time>
      </trkpt>
      <trkpt lat="44.25692" lon="0.91979">
        <ele>223.02</ele>
        <time>2017-08-16T09:08:01Z</time>
      </trkpt>
      <trkpt lat="44.25731" lon="0.91991">
        <ele>223.821</ele>
        <time>2017-08-16T09:08:10Z</time>
      </trkpt>
      <trkpt lat="44.25754" lon="0.92011">
        <ele>223.691</ele>
        <time>2017-08-16T09:08:16Z</time>
      </trkpt>
      <trkpt lat="44.25764" lon="0.92025">
        <ele>223.41</ele>
        <time>2017-08-16T09:08:19Z</time>
      </trkpt>
      <trkpt lat="44.25782" lon="0.92065">
        <ele>223.141</ele>
        <time>2017-08-16T09:08:27Z</time>
      </trkpt>
      <trkpt lat="44.25793" lon="0.92119">
        <ele>223.324</ele>
        <time>2017-08-16T09:08:36Z</time>
      </trkpt>
      <trkpt lat="44.25808" lon="0.92203">
        <ele>224.251</ele>
        <time>2017-08-16T09:08:50Z</time>
      </trkpt>
      <trkpt lat="44.25813" lon="0.92234">
        <ele>224.761</ele>
        <time>2017-08-16T09:08:55Z</time>
      </trkpt>
      <trkpt lat="44.25826" lon="0.92261">
        <ele>225.241</ele>
        <time>2017-08-16T09:09:00Z</time>
      </trkpt>
      <trkpt lat="44.2583" lon="0.92265">
        <ele>225.331</ele>
        <time>2017-08-16T09:09:01Z</time>
      </trkpt>
      <trkpt lat="44.25871" lon="0.92303">
        <ele>225.142</ele>
        <time>2017-08-16T09:09:12Z</time>
      </trkpt>
      <trkpt lat="44.25905" lon="0.92338">
        <ele>224.342</ele>
        <time>2017-08-16T09:09:21Z</time>
      </trkpt>
      <trkpt lat="44.25924" lon="0.9237">
        <ele>223.491</ele>
        <time>2017-08-16T09:09:27Z</time>
      </trkpt>
      <trkpt lat="44.25937" lon="0.92414">
        <ele>222.771</ele>
        <time>2017-08-16T09:09:33Z</time>
      </trkpt>
      <trkpt lat="44.25962" lon="0.92496">
        <ele>221.992</ele>
        <time>2017-08-16T09:09:43Z</time>
      </trkpt>
      <trkpt lat="44.25984" lon="0.92565">
        <ele>221.862</ele>
        <time>2017-08-16T09:09:52Z</time>
      </trkpt>
      <trkpt lat="44.26004" lon="0.92615">
        <ele>221.322</ele>
        <time>2017-08-16T09:09:59Z</time>
      </trkpt>
      <trkpt lat="44.26012" lon="0.92654">
        <ele>221.602</ele>
        <time>2017-08-16T09:10:04Z</time>
      </trkpt>
      <trkpt lat="44.26013" lon="0.92669">
        <ele>221.894</ele>
        <time>2017-08-16T09:10:06Z</time>
      </trkpt>
      <trkpt lat="44.26007" lon="0.92727">
        <ele>223.405</ele>
        <time>2017-08-16T09:10:14Z</time>
      </trkpt>
      <trkpt lat="44.2601" lon="0.92752">
        <ele>223.935</ele>
        <time>2017-08-16T09:10:18Z</time>
      </trkpt>
      <trkpt lat="44.26022" lon="0.92759">
        <ele>224.385</ele>
        <time>2017-08-16T09:10:21Z</time>
      </trkpt>
      <trkpt lat="44.26026" lon="0.92759">
        <ele>224.464</ele>
        <time>2017-08-16T09:10:22Z</time>
      </trkpt>
      <trkpt lat="44.26075" lon="0.9275">
        <ele>224.994</ele>
        <time>2017-08-16T09:10:33Z</time>
      </trkpt>
      <trkpt lat="44.26129" lon="0.92741">
        <ele>225.554</ele>
        <time>2017-08-16T09:10:45Z</time>
      </trkpt>
      <trkpt lat="44.26172" lon="0.9274">
        <ele>226.044</ele>
        <time>2017-08-16T09:10:54Z</time>
      </trkpt>
      <trkpt lat="44.26214" lon="0.92741">
        <ele>225.813</ele>
        <time>2017-08-16T09:11:02Z</time>
      </trkpt>
      <trkpt lat="44.26259" lon="0.92751">
        <ele>225.665</ele>
        <time>2017-08-16T09:11:10Z</time>
      </trkpt>
      <trkpt lat="44.263" lon="0.92762">
        <ele>225.96</ele>
        <time>2017-08-16T09:11:18Z</time>
      </trkpt>
      <trkpt lat="44.26344" lon="0.92773">
        <ele>226.305</ele>
        <time>2017-08-16T09:11:28Z</time>
      </trkpt>
      <trkpt lat="44.26382" lon="0.92783">
        <ele>226.565</ele>
        <time>2017-08-16T09:11:37Z</time>
      </trkpt>
      <trkpt lat="44.26443" lon="0.92799">
        <ele>226.865</ele>
        <time>2017-08-16T09:11:51Z</time>
      </trkpt>
      <trkpt lat="44.26492" lon="0.92811">
        <ele>226.234</ele>
        <time>2017-08-16T09:12:01Z</time>
      </trkpt>
      <trkpt lat="44.26523" lon="0.92815">
        <ele>226.116</ele>
        <time>2017-08-16T09:12:07Z</time>
      </trkpt>
      <trkpt lat="44.26558" lon="0.92799">
        <ele>226.326</ele>
        <time>2017-08-16T09:12:14Z</time>
      </trkpt>
      <trkpt lat="44.26599" lon="0.92768">
        <ele>227.137</ele>
        <time>2017-08-16T09:12:21Z</time>
      </trkpt>
      <trkpt lat="44.26605" lon="0.92764">
        <ele>227.287</ele>
        <time>2017-08-16T09:12:22Z</time>
      </trkpt>
      <trkpt lat="44.26617" lon="0.92766">
        <ele>227.667</ele>
        <time>2017-08-16T09:12:25Z</time>
      </trkpt>
      <trkpt lat="44.26617" lon="0.92775">
        <ele>227.646</ele>
        <time>2017-08-16T09:12:27Z</time>
      </trkpt>
      <trkpt lat="44.26608" lon="0.92807">
        <ele>227.346</ele>
        <time>2017-08-16T09:12:32Z</time>
      </trkpt>
      <trkpt lat="44.26593" lon="0.92863">
        <ele>227.126</ele>
        <time>2017-08-16T09:12:38Z</time>
      </trkpt>
      <trkpt lat="44.26576" lon="0.92934">
        <ele>227.276</ele>
        <time>2017-08-16T09:12:44Z</time>
      </trkpt>
      <trkpt lat="44.26547" lon="0.93051">
        <ele>227.196</ele>
        <time>2017-08-16T09:12:53Z</time>
      </trkpt>
      <trkpt lat="44.26516" lon="0.93183">
        <ele>226.786</ele>
        <time>2017-08-16T09:13:03Z</time>
      </trkpt>
      <trkpt lat="44.26496" lon="0.93278">
        <ele>226.287</ele>
        <time>2017-08-16T09:13:10Z</time>
      </trkpt>
      <trkpt lat="44.26476" lon="0.93398">
        <ele>226.757</ele>
        <time>2017-08-16T09:13:19Z</time>
      </trkpt>
      <trkpt lat="44.26455" lon="0.93522">
        <ele>227.487</ele>
        <time>2017-08-16T09:13:29Z</time>
      </trkpt>
      <trkpt lat="44.26437" lon="0.93626">
        <ele>228.577</ele>
        <time>2017-08-16T09:13:38Z</time>
      </trkpt>
      <trkpt lat="44.26417" lon="0.93703">
        <ele>228.987</ele>
        <time>2017-08-16T09:13:45Z</time>
      </trkpt>
      <trkpt lat="44.26391" lon="0.93764">
        <ele>229.607</ele>
        <time>2017-08-16T09:13:51Z</time>
      </trkpt>
      <trkpt lat="44.26353" lon="0.93829">
        <ele>230.227</ele>
        <time>2017-08-16T09:13:58Z</time>
      </trkpt>
      <trkpt lat="44.26314" lon="0.93879">
        <ele>230.026</ele>
        <time>2017-08-16T09:14:04Z</time>
      </trkpt>
      <trkpt lat="44.26272" lon="0.93909">
        <ele>229.376</ele>
        <time>2017-08-16T09:14:09Z</time>
      </trkpt>
      <trkpt lat="44.26193" lon="0.93946">
        <ele>229.387</ele>
        <time>2017-08-16T09:14:18Z</time>
      </trkpt>
      <trkpt lat="44.26114" lon="0.93982">
        <ele>230.127</ele>
        <time>2017-08-16T09:14:27Z</time>
      </trkpt>
      <trkpt lat="44.26039" lon="0.94017">
        <ele>231.107</ele>
        <time>2017-08-16T09:14:36Z</time>
      </trkpt>
      <trkpt lat="44.26016" lon="0.94033">
        <ele>231.397</ele>
        <time>2017-08-16T09:14:39Z</time>
      </trkpt>
      <trkpt lat="44.25983" lon="0.94082">
        <ele>232.037</ele>
        <time>2017-08-16T09:14:45Z</time>
      </trkpt>
      <trkpt lat="44.25952" lon="0.94158">
        <ele>232.627</ele>
        <time>2017-08-16T09:14:53Z</time>
      </trkpt>
      <trkpt lat="44.25914" lon="0.94254">
        <ele>232.927</ele>
        <time>2017-08-16T09:15:03Z</time>
      </trkpt>
      <trkpt lat="44.25892" lon="0.94328">
        <ele>233.126</ele>
        <time>2017-08-16T09:15:10Z</time>
      </trkpt>
      <trkpt lat="44.25876" lon="0.94418">
        <ele>232.115</ele>
        <time>2017-08-16T09:15:18Z</time>
      </trkpt>
      <trkpt lat="44.25859" lon="0.94521">
        <ele>230.845</ele>
        <time>2017-08-16T09:15:27Z</time>
      </trkpt>
      <trkpt lat="44.25838" lon="0.94644">
        <ele>230.075</ele>
        <time>2017-08-16T09:15:37Z</time>
      </trkpt>
      <trkpt lat="44.25818" lon="0.94761">
        <ele>229.165</ele>
        <time>2017-08-16T09:15:47Z</time>
      </trkpt>
      <trkpt lat="44.25814" lon="0.94786">
        <ele>229.156</ele>
        <time>2017-08-16T09:15:51Z</time>
      </trkpt>
      <trkpt lat="44.25811" lon="0.94796">
        <ele>228.075</ele>
        <time>2017-08-16T09:15:56Z</time>
      </trkpt>
      <trkpt lat="44.2581" lon="0.94799">
        <ele>227.956</ele>
        <time>2017-08-16T09:15:58Z</time>
      </trkpt>
      <trkpt lat="44.2581" lon="0.94801">
        <ele>227.656</ele>
        <time>2017-08-16T09:16:05Z</time>
      </trkpt>
      <trkpt lat="44.25812" lon="0.94799">
        <ele>229.046</ele>
        <time>2017-08-16T09:18:08Z</time>
      </trkpt>
      <trkpt lat="44.25814" lon="0.94813">
        <ele>228.866</ele>
        <time>2017-08-16T09:18:13Z</time>
      </trkpt>
      <trkpt lat="44.25819" lon="0.94821">
        <ele>228.426</ele>
        <time>2017-08-16T09:18:15Z</time>
      </trkpt>
      <trkpt lat="44.25844" lon="0.94865">
        <ele>227.116</ele>
        <time>2017-08-16T09:18:23Z</time>
      </trkpt>
      <trkpt lat="44.25864" lon="0.94916">
        <ele>226.036</ele>
        <time>2017-08-16T09:18:30Z</time>
      </trkpt>
      <trkpt lat="44.25896" lon="0.95008">
        <ele>225.116</ele>
        <time>2017-08-16T09:18:42Z</time>
      </trkpt>
      <trkpt lat="44.25936" lon="0.95124">
        <ele>224.596</ele>
        <time>2017-08-16T09:18:57Z</time>
      </trkpt>
      <trkpt lat="44.25965" lon="0.95208">
        <ele>223.637</ele>
        <time>2017-08-16T09:19:08Z</time>
      </trkpt>
      <trkpt lat="44.25996" lon="0.95295">
        <ele>222.858</ele>
        <time>2017-08-16T09:19:20Z</time>
      </trkpt>
      <trkpt lat="44.26018" lon="0.95353">
        <ele>220.857</ele>
        <time>2017-08-16T09:19:27Z</time>
      </trkpt>
      <trkpt lat="44.26052" lon="0.95414">
        <ele>216.535</ele>
        <time>2017-08-16T09:19:34Z</time>
      </trkpt>
      <trkpt lat="44.261" lon="0.95485">
        <ele>213.208</ele>
        <time>2017-08-16T09:19:42Z</time>
      </trkpt>
      <trkpt lat="44.26151" lon="0.95547">
        <ele>211.448</ele>
        <time>2017-08-16T09:19:50Z</time>
      </trkpt>
      <trkpt lat="44.2619" lon="0.9558">
        <ele>212.49</ele>
        <time>2017-08-16T09:19:56Z</time>
      </trkpt>
      <trkpt lat="44.26219" lon="0.95604">
        <ele>213.64</ele>
        <time>2017-08-16T09:20:02Z</time>
      </trkpt>
      <trkpt lat="44.26238" lon="0.95626">
        <ele>214.739</ele>
        <time>2017-08-16T09:20:08Z</time>
      </trkpt>
      <trkpt lat="44.26264" lon="0.95663">
        <ele>215.901</ele>
        <time>2017-08-16T09:20:18Z</time>
      </trkpt>
      <trkpt lat="44.26282" lon="0.957">
        <ele>217.241</ele>
        <time>2017-08-16T09:20:27Z</time>
      </trkpt>
      <trkpt lat="44.2629" lon="0.95733">
        <ele>218.631</ele>
        <time>2017-08-16T09:20:35Z</time>
      </trkpt>
      <trkpt lat="44.26289" lon="0.95762">
        <ele>220.411</ele>
        <time>2017-08-16T09:20:42Z</time>
      </trkpt>
      <trkpt lat="44.26283" lon="0.95788">
        <ele>222.071</ele>
        <time>2017-08-16T09:20:49Z</time>
      </trkpt>
      <trkpt lat="44.26281" lon="0.95796">
        <ele>222.952</ele>
        <time>2017-08-16T09:20:51Z</time>
      </trkpt>
      <trkpt lat="44.26264" lon="0.95807">
        <ele>228.843</ele>
        <time>2017-08-16T09:20:58Z</time>
      </trkpt>
      <trkpt lat="44.26242" lon="0.9582">
        <ele>234.193</ele>
        <time>2017-08-16T09:21:06Z</time>
      </trkpt>
      <trkpt lat="44.26213" lon="0.95831">
        <ele>235.282</ele>
        <time>2017-08-16T09:21:14Z</time>
      </trkpt>
      <trkpt lat="44.26187" lon="0.95848">
        <ele>232.25</ele>
        <time>2017-08-16T09:21:22Z</time>
      </trkpt>
      <trkpt lat="44.26179" lon="0.95854">
        <ele>232.14</ele>
        <time>2017-08-16T09:21:24Z</time>
      </trkpt>
      <trkpt lat="44.26164" lon="0.95874">
        <ele>231.69</ele>
        <time>2017-08-16T09:21:29Z</time>
      </trkpt>
      <trkpt lat="44.26151" lon="0.95889">
        <ele>232.49</ele>
        <time>2017-08-16T09:21:33Z</time>
      </trkpt>
      <trkpt lat="44.26118" lon="0.95927">
        <ele>233.731</ele>
        <time>2017-08-16T09:21:43Z</time>
      </trkpt>
      <trkpt lat="44.26109" lon="0.95939">
        <ele>234.521</ele>
        <time>2017-08-16T09:21:46Z</time>
      </trkpt>
      <trkpt lat="44.26077" lon="0.95981">
        <ele>234.271</ele>
        <time>2017-08-16T09:21:56Z</time>
      </trkpt>
      <trkpt lat="44.26062" lon="0.96">
        <ele>233.1</ele>
        <time>2017-08-16T09:22:02Z</time>
      </trkpt>
      <trkpt lat="44.26058" lon="0.95996">
        <ele>233</ele>
        <time>2017-08-16T09:22:06Z</time>
      </trkpt>
      <trkpt lat="44.26056" lon="0.95989">
        <ele>231.54</ele>
        <time>2017-08-16T09:22:10Z</time>
      </trkpt>
      <trkpt lat="44.26052" lon="0.95983">
        <ele>230.08</ele>
        <time>2017-08-16T09:22:16Z</time>
      </trkpt>
      <trkpt lat="44.26052" lon="0.95991">
        <ele>229.81</ele>
        <time>2017-08-16T09:22:24Z</time>
      </trkpt>
      <trkpt lat="44.26052" lon="0.95991">
        <ele>229.695</ele>
        <time>2017-08-16T09:22:27Z</time>
      </trkpt>
      <trkpt lat="44.26077" lon="0.95995">
        <ele>242.041</ele>
        <time>2017-08-16T09:23:09Z</time>
      </trkpt>
      <trkpt lat="44.26064" lon="0.95994">
        <ele>230.41</ele>
        <time>2017-08-16T09:28:03Z</time>
      </trkpt>
      <trkpt lat="44.26067" lon="0.95997">
        <ele>230.17</ele>
        <time>2017-08-16T09:28:07Z</time>
      </trkpt>
      <trkpt lat="44.26069" lon="0.96">
        <ele>230.33</ele>
        <time>2017-08-16T09:28:09Z</time>
      </trkpt>
      <trkpt lat="44.26074" lon="0.95997">
        <ele>230.09</ele>
        <time>2017-08-16T09:28:15Z</time>
      </trkpt>
      <trkpt lat="44.26079" lon="0.9599">
        <ele>229.69</ele>
        <time>2017-08-16T09:28:22Z</time>
      </trkpt>
      <trkpt lat="44.26085" lon="0.95979">
        <ele>229.97</ele>
        <time>2017-08-16T09:28:29Z</time>
      </trkpt>
      <trkpt lat="44.26099" lon="0.95959">
        <ele>228.44</ele>
        <time>2017-08-16T09:28:39Z</time>
      </trkpt>
      <trkpt lat="44.26114" lon="0.95939">
        <ele>227.609</ele>
        <time>2017-08-16T09:28:47Z</time>
      </trkpt>
      <trkpt lat="44.26134" lon="0.95911">
        <ele>227.119</ele>
        <time>2017-08-16T09:28:54Z</time>
      </trkpt>
      <trkpt lat="44.26162" lon="0.95876">
        <ele>225.139</ele>
        <time>2017-08-16T09:29:02Z</time>
      </trkpt>
      <trkpt lat="44.2618" lon="0.95855">
        <ele>224.52</ele>
        <time>2017-08-16T09:29:07Z</time>
      </trkpt>
      <trkpt lat="44.262" lon="0.95837">
        <ele>226.051</ele>
        <time>2017-08-16T09:29:12Z</time>
      </trkpt>
      <trkpt lat="44.26232" lon="0.95816">
        <ele>229.782</ele>
        <time>2017-08-16T09:29:20Z</time>
      </trkpt>
      <trkpt lat="44.2627" lon="0.95796">
        <ele>228.479</ele>
        <time>2017-08-16T09:29:28Z</time>
      </trkpt>
      <trkpt lat="44.26275" lon="0.95794">
        <ele>227.569</ele>
        <time>2017-08-16T09:29:29Z</time>
      </trkpt>
      <trkpt lat="44.26288" lon="0.9577">
        <ele>225.598</ele>
        <time>2017-08-16T09:29:33Z</time>
      </trkpt>
      <trkpt lat="44.26292" lon="0.95742">
        <ele>223.768</ele>
        <time>2017-08-16T09:29:36Z</time>
      </trkpt>
      <trkpt lat="44.26288" lon="0.95702">
        <ele>221.548</ele>
        <time>2017-08-16T09:29:40Z</time>
      </trkpt>
      <trkpt lat="44.26284" lon="0.95692">
        <ele>221.198</ele>
        <time>2017-08-16T09:29:41Z</time>
      </trkpt>
      <trkpt lat="44.26253" lon="0.95637">
        <ele>217.467</ele>
        <time>2017-08-16T09:29:47Z</time>
      </trkpt>
      <trkpt lat="44.26213" lon="0.95589">
        <ele>214.366</ele>
        <time>2017-08-16T09:29:53Z</time>
      </trkpt>
      <trkpt lat="44.26163" lon="0.95548">
        <ele>210.768</ele>
        <time>2017-08-16T09:29:59Z</time>
      </trkpt>
      <trkpt lat="44.26126" lon="0.9551">
        <ele>210.52</ele>
        <time>2017-08-16T09:30:04Z</time>
      </trkpt>
      <trkpt lat="44.26092" lon="0.95465">
        <ele>211.491</ele>
        <time>2017-08-16T09:30:10Z</time>
      </trkpt>
      <trkpt lat="44.26068" lon="0.95429">
        <ele>214.222</ele>
        <time>2017-08-16T09:30:16Z</time>
      </trkpt>
      <trkpt lat="44.26045" lon="0.95392">
        <ele>216.751</ele>
        <time>2017-08-16T09:30:24Z</time>
      </trkpt>
      <trkpt lat="44.26027" lon="0.95359">
        <ele>218.12</ele>
        <time>2017-08-16T09:30:32Z</time>
      </trkpt>
      <trkpt lat="44.26008" lon="0.95318">
        <ele>219.65</ele>
        <time>2017-08-16T09:30:42Z</time>
      </trkpt>
      <trkpt lat="44.25999" lon="0.95294">
        <ele>220.539</ele>
        <time>2017-08-16T09:30:48Z</time>
      </trkpt>
      <trkpt lat="44.25983" lon="0.95247">
        <ele>220.999</ele>
        <time>2017-08-16T09:30:57Z</time>
      </trkpt>
      <trkpt lat="44.25964" lon="0.95194">
        <ele>221.709</ele>
        <time>2017-08-16T09:31:06Z</time>
      </trkpt>
      <trkpt lat="44.25939" lon="0.9512">
        <ele>224.37</ele>
        <time>2017-08-16T09:31:18Z</time>
      </trkpt>
      <trkpt lat="44.25914" lon="0.95048">
        <ele>225.638</ele>
        <time>2017-08-16T09:31:30Z</time>
      </trkpt>
      <trkpt lat="44.25887" lon="0.94971">
        <ele>226.858</ele>
        <time>2017-08-16T09:31:43Z</time>
      </trkpt>
      <trkpt lat="44.25863" lon="0.949">
        <ele>227.838</ele>
        <time>2017-08-16T09:31:55Z</time>
      </trkpt>
      <trkpt lat="44.25842" lon="0.94849">
        <ele>229.249</ele>
        <time>2017-08-16T09:32:05Z</time>
      </trkpt>
      <trkpt lat="44.25819" lon="0.94812">
        <ele>230.559</ele>
        <time>2017-08-16T09:32:15Z</time>
      </trkpt>
      <trkpt lat="44.25816" lon="0.9479">
        <ele>231.168</ele>
        <time>2017-08-16T09:32:20Z</time>
      </trkpt>
      <trkpt lat="44.25822" lon="0.94756">
        <ele>231.037</ele>
        <time>2017-08-16T09:32:28Z</time>
      </trkpt>
      <trkpt lat="44.25832" lon="0.94701">
        <ele>230.897</ele>
        <time>2017-08-16T09:32:40Z</time>
      </trkpt>
      <trkpt lat="44.2584" lon="0.94657">
        <ele>231.877</ele>
        <time>2017-08-16T09:32:49Z</time>
      </trkpt>
      <trkpt lat="44.25852" lon="0.9459">
        <ele>233.157</ele>
        <time>2017-08-16T09:33:02Z</time>
      </trkpt>
      <trkpt lat="44.25867" lon="0.94505">
        <ele>234.317</ele>
        <time>2017-08-16T09:33:18Z</time>
      </trkpt>
      <trkpt lat="44.25876" lon="0.94453">
        <ele>235.007</ele>
        <time>2017-08-16T09:33:28Z</time>
      </trkpt>
      <trkpt lat="44.25883" lon="0.94412">
        <ele>235.187</ele>
        <time>2017-08-16T09:33:36Z</time>
      </trkpt>
      <trkpt lat="44.25895" lon="0.94345">
        <ele>235.317</ele>
        <time>2017-08-16T09:33:49Z</time>
      </trkpt>
      <trkpt lat="44.2591" lon="0.94286">
        <ele>236.117</ele>
        <time>2017-08-16T09:34:01Z</time>
      </trkpt>
      <trkpt lat="44.25932" lon="0.94221">
        <ele>235.986</ele>
        <time>2017-08-16T09:34:14Z</time>
      </trkpt>
      <trkpt lat="44.25956" lon="0.94162">
        <ele>235.035</ele>
        <time>2017-08-16T09:34:25Z</time>
      </trkpt>
      <trkpt lat="44.25982" lon="0.94095">
        <ele>232.796</ele>
        <time>2017-08-16T09:34:36Z</time>
      </trkpt>
      <trkpt lat="44.26007" lon="0.94048">
        <ele>232.066</ele>
        <time>2017-08-16T09:34:44Z</time>
      </trkpt>
      <trkpt lat="44.26031" lon="0.94021">
        <ele>231.536</ele>
        <time>2017-08-16T09:34:50Z</time>
      </trkpt>
      <trkpt lat="44.26056" lon="0.94008">
        <ele>231.416</ele>
        <time>2017-08-16T09:34:55Z</time>
      </trkpt>
      <trkpt lat="44.2612" lon="0.93978">
        <ele>229.746</ele>
        <time>2017-08-16T09:35:08Z</time>
      </trkpt>
      <trkpt lat="44.26176" lon="0.93953">
        <ele>228.566</ele>
        <time>2017-08-16T09:35:19Z</time>
      </trkpt>
      <trkpt lat="44.26233" lon="0.93927">
        <ele>227.757</ele>
        <time>2017-08-16T09:35:30Z</time>
      </trkpt>
      <trkpt lat="44.26287" lon="0.93901">
        <ele>227.887</ele>
        <time>2017-08-16T09:35:41Z</time>
      </trkpt>
      <trkpt lat="44.26321" lon="0.93874">
        <ele>228.627</ele>
        <time>2017-08-16T09:35:49Z</time>
      </trkpt>
      <trkpt lat="44.26352" lon="0.93835">
        <ele>229.507</ele>
        <time>2017-08-16T09:35:58Z</time>
      </trkpt>
      <trkpt lat="44.26389" lon="0.93774">
        <ele>230.197</ele>
        <time>2017-08-16T09:36:10Z</time>
      </trkpt>
      <trkpt lat="44.26418" lon="0.93715">
        <ele>230.197</ele>
        <time>2017-08-16T09:36:20Z</time>
      </trkpt>
      <trkpt lat="44.26438" lon="0.93645">
        <ele>230.097</ele>
        <time>2017-08-16T09:36:30Z</time>
      </trkpt>
      <trkpt lat="44.26451" lon="0.93573">
        <ele>229.447</ele>
        <time>2017-08-16T09:36:40Z</time>
      </trkpt>
      <trkpt lat="44.26468" lon="0.93474">
        <ele>228.177</ele>
        <time>2017-08-16T09:36:53Z</time>
      </trkpt>
      <trkpt lat="44.26485" lon="0.93371">
        <ele>227.137</ele>
        <time>2017-08-16T09:37:06Z</time>
      </trkpt>
      <trkpt lat="44.26502" lon="0.9327">
        <ele>226.587</ele>
        <time>2017-08-16T09:37:19Z</time>
      </trkpt>
      <trkpt lat="44.26518" lon="0.9319">
        <ele>226.83</ele>
        <time>2017-08-16T09:37:30Z</time>
      </trkpt>
      <trkpt lat="44.26537" lon="0.93106">
        <ele>226.917</ele>
        <time>2017-08-16T09:37:42Z</time>
      </trkpt>
      <trkpt lat="44.26563" lon="0.93">
        <ele>227.067</ele>
        <time>2017-08-16T09:37:57Z</time>
      </trkpt>
      <trkpt lat="44.2659" lon="0.92888">
        <ele>227.197</ele>
        <time>2017-08-16T09:38:13Z</time>
      </trkpt>
      <trkpt lat="44.26614" lon="0.92788">
        <ele>226.767</ele>
        <time>2017-08-16T09:38:27Z</time>
      </trkpt>
      <trkpt lat="44.26616" lon="0.92781">
        <ele>226.757</ele>
        <time>2017-08-16T09:38:28Z</time>
      </trkpt>
      <trkpt lat="44.26617" lon="0.92756">
        <ele>226.405</ele>
        <time>2017-08-16T09:38:32Z</time>
      </trkpt>
      <trkpt lat="44.26607" lon="0.92754">
        <ele>226.105</ele>
        <time>2017-08-16T09:38:34Z</time>
      </trkpt>
      <trkpt lat="44.26598" lon="0.9276">
        <ele>225.705</ele>
        <time>2017-08-16T09:38:36Z</time>
      </trkpt>
      <trkpt lat="44.26551" lon="0.92794">
        <ele>224.466</ele>
        <time>2017-08-16T09:38:45Z</time>
      </trkpt>
      <trkpt lat="44.26533" lon="0.92804">
        <ele>224.245</ele>
        <time>2017-08-16T09:38:48Z</time>
      </trkpt>
      <trkpt lat="44.26501" lon="0.92808">
        <ele>224.106</ele>
        <time>2017-08-16T09:38:53Z</time>
      </trkpt>
      <trkpt lat="44.2644" lon="0.92793">
        <ele>224.447</ele>
        <time>2017-08-16T09:39:04Z</time>
      </trkpt>
      <trkpt lat="44.26368" lon="0.92775">
        <ele>223.836</ele>
        <time>2017-08-16T09:39:17Z</time>
      </trkpt>
      <trkpt lat="44.26294" lon="0.92755">
        <ele>222.204</ele>
        <time>2017-08-16T09:39:29Z</time>
      </trkpt>
      <trkpt lat="44.26249" lon="0.92742">
        <ele>221.275</ele>
        <time>2017-08-16T09:39:36Z</time>
      </trkpt>
      <trkpt lat="44.26198" lon="0.92732">
        <ele>221.266</ele>
        <time>2017-08-16T09:39:44Z</time>
      </trkpt>
      <trkpt lat="44.26146" lon="0.92731">
        <ele>221.605</ele>
        <time>2017-08-16T09:39:53Z</time>
      </trkpt>
      <trkpt lat="44.2609" lon="0.92738">
        <ele>221.114</ele>
        <time>2017-08-16T09:40:02Z</time>
      </trkpt>
      <trkpt lat="44.26024" lon="0.92749">
        <ele>220.314</ele>
        <time>2017-08-16T09:40:13Z</time>
      </trkpt>
      <trkpt lat="44.26006" lon="0.92733">
        <ele>219.188</ele>
        <time>2017-08-16T09:40:17Z</time>
      </trkpt>
      <trkpt lat="44.26007" lon="0.92714">
        <ele>218.964</ele>
        <time>2017-08-16T09:40:19Z</time>
      </trkpt>
      <trkpt lat="44.2601" lon="0.92697">
        <ele>218.744</ele>
        <time>2017-08-16T09:40:21Z</time>
      </trkpt>
      <trkpt lat="44.26012" lon="0.92654">
        <ele>218.224</ele>
        <time>2017-08-16T09:40:26Z</time>
      </trkpt>
      <trkpt lat="44.26006" lon="0.92614">
        <ele>217.873</ele>
        <time>2017-08-16T09:40:31Z</time>
      </trkpt>
      <trkpt lat="44.25988" lon="0.9257">
        <ele>218.544</ele>
        <time>2017-08-16T09:40:38Z</time>
      </trkpt>
      <trkpt lat="44.25971" lon="0.92516">
        <ele>219.285</ele>
        <time>2017-08-16T09:40:46Z</time>
      </trkpt>
      <trkpt lat="44.25947" lon="0.92446">
        <ele>219.694</ele>
        <time>2017-08-16T09:40:56Z</time>
      </trkpt>
      <trkpt lat="44.25929" lon="0.92381">
        <ele>220.484</ele>
        <time>2017-08-16T09:41:06Z</time>
      </trkpt>
      <trkpt lat="44.25915" lon="0.92345">
        <ele>221.314</ele>
        <time>2017-08-16T09:41:13Z</time>
      </trkpt>
      <trkpt lat="44.25909" lon="0.92334">
        <ele>221.624</ele>
        <time>2017-08-16T09:41:18Z</time>
      </trkpt>
      <trkpt lat="44.25909" lon="0.92335">
        <ele>221.453</ele>
        <time>2017-08-16T09:41:23Z</time>
      </trkpt>
      <trkpt lat="44.25909" lon="0.92333">
        <ele>222.602</ele>
        <time>2017-08-16T09:41:33Z</time>
      </trkpt>
      <trkpt lat="44.25908" lon="0.92333">
        <ele>219.103</ele>
        <time>2017-08-16T09:48:38Z</time>
      </trkpt>
      <trkpt lat="44.25905" lon="0.92329">
        <ele>219.483</ele>
        <time>2017-08-16T09:48:42Z</time>
      </trkpt>
      <trkpt lat="44.25895" lon="0.92317">
        <ele>220.173</ele>
        <time>2017-08-16T09:48:49Z</time>
      </trkpt>
      <trkpt lat="44.25892" lon="0.92314">
        <ele>220.773</ele>
        <time>2017-08-16T09:48:54Z</time>
      </trkpt>
      <trkpt lat="44.25891" lon="0.92313">
        <ele>220.923</ele>
        <time>2017-08-16T09:48:55Z</time>
      </trkpt>
      <trkpt lat="44.25879" lon="0.92302">
        <ele>221.533</ele>
        <time>2017-08-16T09:49:01Z</time>
      </trkpt>
      <trkpt lat="44.25864" lon="0.92288">
        <ele>222.063</ele>
        <time>2017-08-16T09:49:07Z</time>
      </trkpt>
      <trkpt lat="44.25837" lon="0.92263">
        <ele>222.353</ele>
        <time>2017-08-16T09:49:15Z</time>
      </trkpt>
      <trkpt lat="44.25826" lon="0.92252">
        <ele>222.182</ele>
        <time>2017-08-16T09:49:18Z</time>
      </trkpt>
      <trkpt lat="44.25811" lon="0.92223">
        <ele>221.862</ele>
        <time>2017-08-16T09:49:23Z</time>
      </trkpt>
      <trkpt lat="44.25795" lon="0.92133">
        <ele>220.832</ele>
        <time>2017-08-16T09:49:35Z</time>
      </trkpt>
      <trkpt lat="44.25776" lon="0.92042">
        <ele>220.282</ele>
        <time>2017-08-16T09:49:47Z</time>
      </trkpt>
      <trkpt lat="44.25758" lon="0.9201">
        <ele>220.402</ele>
        <time>2017-08-16T09:49:52Z</time>
      </trkpt>
      <trkpt lat="44.25745" lon="0.91995">
        <ele>220.562</ele>
        <time>2017-08-16T09:49:55Z</time>
      </trkpt>
      <trkpt lat="44.25715" lon="0.91976">
        <ele>220.371</ele>
        <time>2017-08-16T09:50:01Z</time>
      </trkpt>
      <trkpt lat="44.25662" lon="0.91962">
        <ele>218.701</ele>
        <time>2017-08-16T09:50:10Z</time>
      </trkpt>
      <trkpt lat="44.25645" lon="0.91953">
        <ele>218.411</ele>
        <time>2017-08-16T09:50:13Z</time>
      </trkpt>
      <trkpt lat="44.25625" lon="0.91926">
        <ele>218.132</ele>
        <time>2017-08-16T09:50:18Z</time>
      </trkpt>
      <trkpt lat="44.25626" lon="0.91902">
        <ele>218.402</ele>
        <time>2017-08-16T09:50:21Z</time>
      </trkpt>
      <trkpt lat="44.25629" lon="0.91886">
        <ele>218.703</ele>
        <time>2017-08-16T09:50:23Z</time>
      </trkpt>
      <trkpt lat="44.25621" lon="0.91847">
        <ele>219.122</ele>
        <time>2017-08-16T09:50:28Z</time>
      </trkpt>
      <trkpt lat="44.25612" lon="0.91836">
        <ele>219.222</ele>
        <time>2017-08-16T09:50:30Z</time>
      </trkpt>
      <trkpt lat="44.25583" lon="0.91803">
        <ele>219.47</ele>
        <time>2017-08-16T09:50:36Z</time>
      </trkpt>
      <trkpt lat="44.2553" lon="0.91749">
        <ele>220.581</ele>
        <time>2017-08-16T09:50:47Z</time>
      </trkpt>
      <trkpt lat="44.25486" lon="0.91708">
        <ele>220.909</ele>
        <time>2017-08-16T09:50:56Z</time>
      </trkpt>
      <trkpt lat="44.25472" lon="0.91676">
        <ele>219.558</ele>
        <time>2017-08-16T09:51:00Z</time>
      </trkpt>
      <trkpt lat="44.25474" lon="0.91644">
        <ele>218.508</ele>
        <time>2017-08-16T09:51:03Z</time>
      </trkpt>
      <trkpt lat="44.25494" lon="0.9155">
        <ele>216.729</ele>
        <time>2017-08-16T09:51:12Z</time>
      </trkpt>
      <trkpt lat="44.25517" lon="0.91512">
        <ele>216.6</ele>
        <time>2017-08-16T09:51:17Z</time>
      </trkpt>
      <trkpt lat="44.25529" lon="0.91504">
        <ele>216.751</ele>
        <time>2017-08-16T09:51:19Z</time>
      </trkpt>
      <trkpt lat="44.25577" lon="0.91476">
        <ele>216.159</ele>
        <time>2017-08-16T09:51:27Z</time>
      </trkpt>
      <trkpt lat="44.25592" lon="0.91448">
        <ele>214.777</ele>
        <time>2017-08-16T09:51:31Z</time>
      </trkpt>
      <trkpt lat="44.25591" lon="0.91416">
        <ele>213.226</ele>
        <time>2017-08-16T09:51:34Z</time>
      </trkpt>
      <trkpt lat="44.25588" lon="0.91405">
        <ele>212.666</ele>
        <time>2017-08-16T09:51:35Z</time>
      </trkpt>
      <trkpt lat="44.2555" lon="0.91307">
        <ele>210.619</ele>
        <time>2017-08-16T09:51:44Z</time>
      </trkpt>
      <trkpt lat="44.25528" lon="0.91249">
        <ele>211.44</ele>
        <time>2017-08-16T09:51:50Z</time>
      </trkpt>
      <trkpt lat="44.25508" lon="0.91205">
        <ele>212.791</ele>
        <time>2017-08-16T09:51:56Z</time>
      </trkpt>
      <trkpt lat="44.2549" lon="0.9118">
        <ele>214.271</ele>
        <time>2017-08-16T09:52:01Z</time>
      </trkpt>
      <trkpt lat="44.25458" lon="0.91148">
        <ele>216.371</ele>
        <time>2017-08-16T09:52:10Z</time>
      </trkpt>
      <trkpt lat="44.25417" lon="0.9111">
        <ele>217.348</ele>
        <time>2017-08-16T09:52:21Z</time>
      </trkpt>
      <trkpt lat="44.25413" lon="0.91105">
        <ele>217.218</ele>
        <time>2017-08-16T09:52:22Z</time>
      </trkpt>
      <trkpt lat="44.25386" lon="0.9108">
        <ele>216.458</ele>
        <time>2017-08-16T09:52:28Z</time>
      </trkpt>
      <trkpt lat="44.25334" lon="0.91024">
        <ele>216.608</ele>
        <time>2017-08-16T09:52:40Z</time>
      </trkpt>
      <trkpt lat="44.25285" lon="0.90969">
        <ele>217.808</ele>
        <time>2017-08-16T09:52:52Z</time>
      </trkpt>
      <trkpt lat="44.25243" lon="0.90931">
        <ele>218.768</ele>
        <time>2017-08-16T09:53:02Z</time>
      </trkpt>
      <trkpt lat="44.25203" lon="0.90908">
        <ele>219.078</ele>
        <time>2017-08-16T09:53:11Z</time>
      </trkpt>
      <trkpt lat="44.25164" lon="0.90899">
        <ele>219.998</ele>
        <time>2017-08-16T09:53:20Z</time>
      </trkpt>
      <trkpt lat="44.25118" lon="0.909">
        <ele>220.377</ele>
        <time>2017-08-16T09:53:30Z</time>
      </trkpt>
      <trkpt lat="44.25072" lon="0.90898">
        <ele>219.775</ele>
        <time>2017-08-16T09:53:39Z</time>
      </trkpt>
      <trkpt lat="44.25018" lon="0.90884">
        <ele>218.484</ele>
        <time>2017-08-16T09:53:49Z</time>
      </trkpt>
      <trkpt lat="44.24973" lon="0.90876">
        <ele>216.273</ele>
        <time>2017-08-16T09:53:56Z</time>
      </trkpt>
      <trkpt lat="44.24935" lon="0.90881">
        <ele>214.273</ele>
        <time>2017-08-16T09:54:01Z</time>
      </trkpt>
      <trkpt lat="44.24878" lon="0.90903">
        <ele>211.794</ele>
        <time>2017-08-16T09:54:08Z</time>
      </trkpt>
      <trkpt lat="44.24824" lon="0.90927">
        <ele>210.786</ele>
        <time>2017-08-16T09:54:15Z</time>
      </trkpt>
      <trkpt lat="44.24814" lon="0.90941">
        <ele>210.987</ele>
        <time>2017-08-16T09:54:18Z</time>
      </trkpt>
      <trkpt lat="44.24816" lon="0.9095">
        <ele>211.637</ele>
        <time>2017-08-16T09:54:20Z</time>
      </trkpt>
      <trkpt lat="44.24831" lon="0.90969">
        <ele>216.208</ele>
        <time>2017-08-16T09:54:28Z</time>
      </trkpt>
      <trkpt lat="44.24839" lon="0.9098">
        <ele>219.25</ele>
        <time>2017-08-16T09:54:33Z</time>
      </trkpt>
      <trkpt lat="44.24851" lon="0.90997">
        <ele>221.798</ele>
        <time>2017-08-16T09:54:39Z</time>
      </trkpt>
      <trkpt lat="44.24869" lon="0.91028">
        <ele>223.488</ele>
        <time>2017-08-16T09:54:47Z</time>
      </trkpt>
      <trkpt lat="44.24877" lon="0.91048">
        <ele>222.124</ele>
        <time>2017-08-16T09:54:52Z</time>
      </trkpt>
      <trkpt lat="44.24882" lon="0.91059">
        <ele>221.113</ele>
        <time>2017-08-16T09:54:54Z</time>
      </trkpt>
      <trkpt lat="44.24901" lon="0.91081">
        <ele>219.164</ele>
        <time>2017-08-16T09:54:59Z</time>
      </trkpt>
      <trkpt lat="44.24916" lon="0.91094">
        <ele>218.234</ele>
        <time>2017-08-16T09:55:02Z</time>
      </trkpt>
      <trkpt lat="44.24933" lon="0.91127">
        <ele>217.685</ele>
        <time>2017-08-16T09:55:07Z</time>
      </trkpt>
      <trkpt lat="44.24943" lon="0.91168">
        <ele>217.216</ele>
        <time>2017-08-16T09:55:14Z</time>
      </trkpt>
      <trkpt lat="44.24953" lon="0.91201">
        <ele>216.175</ele>
        <time>2017-08-16T09:55:21Z</time>
      </trkpt>
      <trkpt lat="44.24959" lon="0.91237">
        <ele>214.594</ele>
        <time>2017-08-16T09:55:28Z</time>
      </trkpt>
      <trkpt lat="44.24959" lon="0.9129">
        <ele>212.803</ele>
        <time>2017-08-16T09:55:36Z</time>
      </trkpt>
      <trkpt lat="44.24954" lon="0.91346">
        <ele>210.904</ele>
        <time>2017-08-16T09:55:43Z</time>
      </trkpt>
      <trkpt lat="44.24943" lon="0.91412">
        <ele>210.847</ele>
        <time>2017-08-16T09:55:51Z</time>
      </trkpt>
      <trkpt lat="44.24926" lon="0.91474">
        <ele>211.136</ele>
        <time>2017-08-16T09:56:00Z</time>
      </trkpt>
      <trkpt lat="44.24908" lon="0.9152">
        <ele>210.656</ele>
        <time>2017-08-16T09:56:08Z</time>
      </trkpt>
      <trkpt lat="44.24896" lon="0.91549">
        <ele>210.406</ele>
        <time>2017-08-16T09:56:15Z</time>
      </trkpt>
      <trkpt lat="44.24881" lon="0.91585">
        <ele>210.326</ele>
        <time>2017-08-16T09:56:21Z</time>
      </trkpt>
      <trkpt lat="44.24857" lon="0.91635">
        <ele>208.965</ele>
        <time>2017-08-16T09:56:30Z</time>
      </trkpt>
      <trkpt lat="44.24824" lon="0.91695">
        <ele>206.615</ele>
        <time>2017-08-16T09:56:40Z</time>
      </trkpt>
      <trkpt lat="44.24797" lon="0.91745">
        <ele>203.983</ele>
        <time>2017-08-16T09:56:47Z</time>
      </trkpt>
      <trkpt lat="44.24767" lon="0.91799">
        <ele>200.522</ele>
        <time>2017-08-16T09:56:53Z</time>
      </trkpt>
      <trkpt lat="44.2474" lon="0.91847">
        <ele>197.843</ele>
        <time>2017-08-16T09:56:58Z</time>
      </trkpt>
      <trkpt lat="44.24725" lon="0.91875">
        <ele>196.084</ele>
        <time>2017-08-16T09:57:02Z</time>
      </trkpt>
      <trkpt lat="44.2472" lon="0.91885">
        <ele>195.215</ele>
        <time>2017-08-16T09:57:06Z</time>
      </trkpt>
      <trkpt lat="44.24716" lon="0.9189">
        <ele>194.735</ele>
        <time>2017-08-16T09:57:10Z</time>
      </trkpt>
      <trkpt lat="44.2471" lon="0.91895">
        <ele>194.196</ele>
        <time>2017-08-16T09:57:16Z</time>
      </trkpt>
      <trkpt lat="44.24716" lon="0.91894">
        <ele>194.387</ele>
        <time>2017-08-16T09:57:19Z</time>
      </trkpt>
      <trkpt lat="44.24717" lon="0.91892">
        <ele>194.517</ele>
        <time>2017-08-16T09:57:20Z</time>
      </trkpt>
      <trkpt lat="44.24728" lon="0.91872">
        <ele>195.677</ele>
        <time>2017-08-16T09:57:31Z</time>
      </trkpt>
      <trkpt lat="44.24736" lon="0.91858">
        <ele>196.247</ele>
        <time>2017-08-16T09:57:39Z</time>
      </trkpt>
      <trkpt lat="44.24746" lon="0.91839">
        <ele>197.447</ele>
        <time>2017-08-16T09:57:48Z</time>
      </trkpt>
      <trkpt lat="44.24762" lon="0.91812">
        <ele>198.937</ele>
        <time>2017-08-16T09:57:59Z</time>
      </trkpt>
      <trkpt lat="44.24781" lon="0.91776">
        <ele>201.157</ele>
        <time>2017-08-16T09:58:13Z</time>
      </trkpt>
      <trkpt lat="44.248" lon="0.91745">
        <ele>203.307</ele>
        <time>2017-08-16T09:58:26Z</time>
      </trkpt>
      <trkpt lat="44.24813" lon="0.9172">
        <ele>204.657</ele>
        <time>2017-08-16T09:58:36Z</time>
      </trkpt>
      <trkpt lat="44.24826" lon="0.91695">
        <ele>205.868</ele>
        <time>2017-08-16T09:58:46Z</time>
      </trkpt>
      <trkpt lat="44.24842" lon="0.91666">
        <ele>206.397</ele>
        <time>2017-08-16T09:58:57Z</time>
      </trkpt>
      <trkpt lat="44.24857" lon="0.91639">
        <ele>206.667</ele>
        <time>2017-08-16T09:59:07Z</time>
      </trkpt>
      <trkpt lat="44.24873" lon="0.91606">
        <ele>207.056</ele>
        <time>2017-08-16T09:59:18Z</time>
      </trkpt>
      <trkpt lat="44.24889" lon="0.91569">
        <ele>206.885</ele>
        <time>2017-08-16T09:59:29Z</time>
      </trkpt>
      <trkpt lat="44.24902" lon="0.9154">
        <ele>206.447</ele>
        <time>2017-08-16T09:59:37Z</time>
      </trkpt>
      <trkpt lat="44.24907" lon="0.91526">
        <ele>206.857</ele>
        <time>2017-08-16T09:59:41Z</time>
      </trkpt>
      <trkpt lat="44.24902" lon="0.91515">
        <ele>207.086</ele>
        <time>2017-08-16T09:59:45Z</time>
      </trkpt>
      <trkpt lat="44.24882" lon="0.91496">
        <ele>205.743</ele>
        <time>2017-08-16T09:59:51Z</time>
      </trkpt>
      <trkpt lat="44.24855" lon="0.91471">
        <ele>201.38</ele>
        <time>2017-08-16T09:59:57Z</time>
      </trkpt>
      <trkpt lat="44.24829" lon="0.91445">
        <ele>196.269</ele>
        <time>2017-08-16T10:00:02Z</time>
      </trkpt>
      <trkpt lat="44.24806" lon="0.91422">
        <ele>192.232</ele>
        <time>2017-08-16T10:00:07Z</time>
      </trkpt>
      <trkpt lat="44.24794" lon="0.91409">
        <ele>190.914</ele>
        <time>2017-08-16T10:00:10Z</time>
      </trkpt>
      <trkpt lat="44.24785" lon="0.91394">
        <ele>189.654</ele>
        <time>2017-08-16T10:00:13Z</time>
      </trkpt>
      <trkpt lat="44.24764" lon="0.91376">
        <ele>188.906</ele>
        <time>2017-08-16T10:00:19Z</time>
      </trkpt>
      <trkpt lat="44.24749" lon="0.91368">
        <ele>189.427</ele>
        <time>2017-08-16T10:00:25Z</time>
      </trkpt>
      <trkpt lat="44.24735" lon="0.91371">
        <ele>188.926</ele>
        <time>2017-08-16T10:00:33Z</time>
      </trkpt>
      <trkpt lat="44.24732" lon="0.91374">
        <ele>188.326</ele>
        <time>2017-08-16T10:00:37Z</time>
      </trkpt>
      <trkpt lat="44.24738" lon="0.91373">
        <ele>188.286</ele>
        <time>2017-08-16T10:00:41Z</time>
      </trkpt>
      <trkpt lat="44.24758" lon="0.91374">
        <ele>188.605</ele>
        <time>2017-08-16T10:00:49Z</time>
      </trkpt>
      <trkpt lat="44.24769" lon="0.91381">
        <ele>188.615</ele>
        <time>2017-08-16T10:00:54Z</time>
      </trkpt>
      <trkpt lat="44.24782" lon="0.91392">
        <ele>189.687</ele>
        <time>2017-08-16T10:01:01Z</time>
      </trkpt>
      <trkpt lat="44.24792" lon="0.91406">
        <ele>191.527</ele>
        <time>2017-08-16T10:01:08Z</time>
      </trkpt>
      <trkpt lat="44.24802" lon="0.91418">
        <ele>192.467</ele>
        <time>2017-08-16T10:01:15Z</time>
      </trkpt>
      <trkpt lat="44.24811" lon="0.91427">
        <ele>193.667</ele>
        <time>2017-08-16T10:01:22Z</time>
      </trkpt>
      <trkpt lat="44.24823" lon="0.9144">
        <ele>195.637</ele>
        <time>2017-08-16T10:01:33Z</time>
      </trkpt>
      <trkpt lat="44.24834" lon="0.91453">
        <ele>197.777</ele>
        <time>2017-08-16T10:01:44Z</time>
      </trkpt>
      <trkpt lat="44.24846" lon="0.91465">
        <ele>200.278</ele>
        <time>2017-08-16T10:01:56Z</time>
      </trkpt>
      <trkpt lat="44.24858" lon="0.91476">
        <ele>202.674</ele>
        <time>2017-08-16T10:02:08Z</time>
      </trkpt>
      <trkpt lat="44.24865" lon="0.91484">
        <ele>204.217</ele>
        <time>2017-08-16T10:02:16Z</time>
      </trkpt>
      <trkpt lat="44.24876" lon="0.91494">
        <ele>206.477</ele>
        <time>2017-08-16T10:02:27Z</time>
      </trkpt>
      <trkpt lat="44.24888" lon="0.91504">
        <ele>208.757</ele>
        <time>2017-08-16T10:02:39Z</time>
      </trkpt>
      <trkpt lat="44.24898" lon="0.91514">
        <ele>210.117</ele>
        <time>2017-08-16T10:02:49Z</time>
      </trkpt>
      <trkpt lat="44.24909" lon="0.91521">
        <ele>210.917</ele>
        <time>2017-08-16T10:02:57Z</time>
      </trkpt>
      <trkpt lat="44.24912" lon="0.91521">
        <ele>211.047</ele>
        <time>2017-08-16T10:02:59Z</time>
      </trkpt>
      <trkpt lat="44.24924" lon="0.91493">
        <ele>211.537</ele>
        <time>2017-08-16T10:03:10Z</time>
      </trkpt>
      <trkpt lat="44.24933" lon="0.91464">
        <ele>212.027</ele>
        <time>2017-08-16T10:03:20Z</time>
      </trkpt>
      <trkpt lat="44.24942" lon="0.91427">
        <ele>213.057</ele>
        <time>2017-08-16T10:03:31Z</time>
      </trkpt>
      <trkpt lat="44.24949" lon="0.91387">
        <ele>213.107</ele>
        <time>2017-08-16T10:03:41Z</time>
      </trkpt>
      <trkpt lat="44.24956" lon="0.91334">
        <ele>214.037</ele>
        <time>2017-08-16T10:03:52Z</time>
      </trkpt>
      <trkpt lat="44.2496" lon="0.9128">
        <ele>215.507</ele>
        <time>2017-08-16T10:04:04Z</time>
      </trkpt>
      <trkpt lat="44.24959" lon="0.91223">
        <ele>216.697</ele>
        <time>2017-08-16T10:04:17Z</time>
      </trkpt>
      <trkpt lat="44.2495" lon="0.91184">
        <ele>216.806</ele>
        <time>2017-08-16T10:04:26Z</time>
      </trkpt>
      <trkpt lat="44.2494" lon="0.91151">
        <ele>216.356</ele>
        <time>2017-08-16T10:04:32Z</time>
      </trkpt>
      <trkpt lat="44.24936" lon="0.91131">
        <ele>216.146</ele>
        <time>2017-08-16T10:04:35Z</time>
      </trkpt>
      <trkpt lat="44.24931" lon="0.91112">
        <ele>215.776</ele>
        <time>2017-08-16T10:04:38Z</time>
      </trkpt>
      <trkpt lat="44.24917" lon="0.91092">
        <ele>215.705</ele>
        <time>2017-08-16T10:04:42Z</time>
      </trkpt>
      <trkpt lat="44.24898" lon="0.91076">
        <ele>216.375</ele>
        <time>2017-08-16T10:04:46Z</time>
      </trkpt>
      <trkpt lat="44.24882" lon="0.91051">
        <ele>217.846</ele>
        <time>2017-08-16T10:04:51Z</time>
      </trkpt>
      <trkpt lat="44.24871" lon="0.91023">
        <ele>220.927</ele>
        <time>2017-08-16T10:04:57Z</time>
      </trkpt>
      <trkpt lat="44.24859" lon="0.90998">
        <ele>221.615</ele>
        <time>2017-08-16T10:05:03Z</time>
      </trkpt>
      <trkpt lat="44.24838" lon="0.90967">
        <ele>218.994</ele>
        <time>2017-08-16T10:05:08Z</time>
      </trkpt>
      <trkpt lat="44.24824" lon="0.90946">
        <ele>217.725</ele>
        <time>2017-08-16T10:05:12Z</time>
      </trkpt>
      <trkpt lat="44.24821" lon="0.90939">
        <ele>216.995</ele>
        <time>2017-08-16T10:05:14Z</time>
      </trkpt>
      <trkpt lat="44.24811" lon="0.90936">
        <ele>215.775</ele>
        <time>2017-08-16T10:05:18Z</time>
      </trkpt>
      <trkpt lat="44.24785" lon="0.90947">
        <ele>213.725</ele>
        <time>2017-08-16T10:05:25Z</time>
      </trkpt>
      <trkpt lat="44.2475" lon="0.9095">
        <ele>213.186</ele>
        <time>2017-08-16T10:05:32Z</time>
      </trkpt>
      <trkpt lat="44.24707" lon="0.90941">
        <ele>211.834</ele>
        <time>2017-08-16T10:05:40Z</time>
      </trkpt>
      <trkpt lat="44.24677" lon="0.90922">
        <ele>210.204</ele>
        <time>2017-08-16T10:05:45Z</time>
      </trkpt>
      <trkpt lat="44.24622" lon="0.90878">
        <ele>207.863</ele>
        <time>2017-08-16T10:05:53Z</time>
      </trkpt>
      <trkpt lat="44.24572" lon="0.90832">
        <ele>206.544</ele>
        <time>2017-08-16T10:06:01Z</time>
      </trkpt>
      <trkpt lat="44.24511" lon="0.90771">
        <ele>206.665</ele>
        <time>2017-08-16T10:06:12Z</time>
      </trkpt>
      <trkpt lat="44.24476" lon="0.9073">
        <ele>207.815</ele>
        <time>2017-08-16T10:06:20Z</time>
      </trkpt>
      <trkpt lat="44.24448" lon="0.90685">
        <ele>209.915</ele>
        <time>2017-08-16T10:06:29Z</time>
      </trkpt>
      <trkpt lat="44.24435" lon="0.90648">
        <ele>210.915</ele>
        <time>2017-08-16T10:06:36Z</time>
      </trkpt>
      <trkpt lat="44.24427" lon="0.906">
        <ele>212.097</ele>
        <time>2017-08-16T10:06:45Z</time>
      </trkpt>
      <trkpt lat="44.24413" lon="0.9054">
        <ele>213.823</ele>
        <time>2017-08-16T10:06:57Z</time>
      </trkpt>
      <trkpt lat="44.244" lon="0.90482">
        <ele>215.683</ele>
        <time>2017-08-16T10:07:09Z</time>
      </trkpt>
      <trkpt lat="44.2439" lon="0.90436">
        <ele>217.293</ele>
        <time>2017-08-16T10:07:19Z</time>
      </trkpt>
      <trkpt lat="44.24386" lon="0.90396">
        <ele>217.913</ele>
        <time>2017-08-16T10:07:28Z</time>
      </trkpt>
      <trkpt lat="44.24383" lon="0.90336">
        <ele>217.792</ele>
        <time>2017-08-16T10:07:42Z</time>
      </trkpt>
      <trkpt lat="44.24378" lon="0.90274">
        <ele>216.921</ele>
        <time>2017-08-16T10:07:56Z</time>
      </trkpt>
      <trkpt lat="44.24371" lon="0.90239">
        <ele>215.781</ele>
        <time>2017-08-16T10:08:02Z</time>
      </trkpt>
      <trkpt lat="44.24355" lon="0.90169">
        <ele>214.671</ele>
        <time>2017-08-16T10:08:13Z</time>
      </trkpt>
      <trkpt lat="44.24344" lon="0.90126">
        <ele>214.852</ele>
        <time>2017-08-16T10:08:21Z</time>
      </trkpt>
      <trkpt lat="44.24326" lon="0.9007">
        <ele>216.282</ele>
        <time>2017-08-16T10:08:31Z</time>
      </trkpt>
      <trkpt lat="44.24304" lon="0.90005">
        <ele>218.162</ele>
        <time>2017-08-16T10:08:43Z</time>
      </trkpt>
      <trkpt lat="44.24289" lon="0.89944">
        <ele>219.261</ele>
        <time>2017-08-16T10:08:54Z</time>
      </trkpt>
      <trkpt lat="44.2428" lon="0.89903">
        <ele>220.221</ele>
        <time>2017-08-16T10:09:02Z</time>
      </trkpt>
      <trkpt lat="44.24272" lon="0.89843">
        <ele>221.381</ele>
        <time>2017-08-16T10:09:14Z</time>
      </trkpt>
      <trkpt lat="44.24273" lon="0.89784">
        <ele>222.111</ele>
        <time>2017-08-16T10:09:25Z</time>
      </trkpt>
      <trkpt lat="44.2428" lon="0.89744">
        <ele>222.25</ele>
        <time>2017-08-16T10:09:33Z</time>
      </trkpt>
      <trkpt lat="44.24284" lon="0.89713">
        <ele>221.61</ele>
        <time>2017-08-16T10:09:40Z</time>
      </trkpt>
      <trkpt lat="44.24284" lon="0.89678">
        <ele>220.92</ele>
        <time>2017-08-16T10:09:47Z</time>
      </trkpt>
      <trkpt lat="44.24275" lon="0.89638">
        <ele>220.109</ele>
        <time>2017-08-16T10:09:54Z</time>
      </trkpt>
      <trkpt lat="44.24263" lon="0.89589">
        <ele>218.909</ele>
        <time>2017-08-16T10:10:02Z</time>
      </trkpt>
      <trkpt lat="44.24251" lon="0.89528">
        <ele>217.91</ele>
        <time>2017-08-16T10:10:10Z</time>
      </trkpt>
      <trkpt lat="44.24236" lon="0.89479">
        <ele>217.259</ele>
        <time>2017-08-16T10:10:17Z</time>
      </trkpt>
      <trkpt lat="44.24225" lon="0.89462">
        <ele>216.639</ele>
        <time>2017-08-16T10:10:20Z</time>
      </trkpt>
      <trkpt lat="44.24196" lon="0.89437">
        <ele>215.269</ele>
        <time>2017-08-16T10:10:25Z</time>
      </trkpt>
      <trkpt lat="44.24157" lon="0.89422">
        <ele>214.299</ele>
        <time>2017-08-16T10:10:30Z</time>
      </trkpt>
      <trkpt lat="44.2411" lon="0.89418">
        <ele>213.61</ele>
        <time>2017-08-16T10:10:36Z</time>
      </trkpt>
      <trkpt lat="44.24074" lon="0.89406">
        <ele>213.6</ele>
        <time>2017-08-16T10:10:41Z</time>
      </trkpt>
      <trkpt lat="44.24038" lon="0.89382">
        <ele>214.441</ele>
        <time>2017-08-16T10:10:47Z</time>
      </trkpt>
      <trkpt lat="44.24009" lon="0.89352">
        <ele>215.359</ele>
        <time>2017-08-16T10:10:53Z</time>
      </trkpt>
      <trkpt lat="44.23987" lon="0.89313">
        <ele>216.039</ele>
        <time>2017-08-16T10:10:59Z</time>
      </trkpt>
      <trkpt lat="44.23957" lon="0.89274">
        <ele>215.307</ele>
        <time>2017-08-16T10:11:06Z</time>
      </trkpt>
      <trkpt lat="44.23926" lon="0.89245">
        <ele>212.445</ele>
        <time>2017-08-16T10:11:11Z</time>
      </trkpt>
      <trkpt lat="44.23888" lon="0.89208">
        <ele>208.454</ele>
        <time>2017-08-16T10:11:16Z</time>
      </trkpt>
      <trkpt lat="44.23831" lon="0.89143">
        <ele>204.526</ele>
        <time>2017-08-16T10:11:23Z</time>
      </trkpt>
      <trkpt lat="44.23779" lon="0.89082">
        <ele>202.977</ele>
        <time>2017-08-16T10:11:30Z</time>
      </trkpt>
      <trkpt lat="44.23741" lon="0.89035">
        <ele>202.648</ele>
        <time>2017-08-16T10:11:36Z</time>
      </trkpt>
      <trkpt lat="44.23718" lon="0.89004">
        <ele>203.57</ele>
        <time>2017-08-16T10:11:41Z</time>
      </trkpt>
      <trkpt lat="44.23697" lon="0.88974">
        <ele>204.829</ele>
        <time>2017-08-16T10:11:48Z</time>
      </trkpt>
      <trkpt lat="44.23676" lon="0.88944">
        <ele>203.654</ele>
        <time>2017-08-16T10:11:54Z</time>
      </trkpt>
      <trkpt lat="44.23652" lon="0.88907">
        <ele>201.243</ele>
        <time>2017-08-16T10:11:59Z</time>
      </trkpt>
      <trkpt lat="44.23609" lon="0.88846">
        <ele>200.426</ele>
        <time>2017-08-16T10:12:06Z</time>
      </trkpt>
      <trkpt lat="44.23578" lon="0.88803">
        <ele>202.589</ele>
        <time>2017-08-16T10:12:12Z</time>
      </trkpt>
      <trkpt lat="44.23558" lon="0.88774">
        <ele>205.158</ele>
        <time>2017-08-16T10:12:18Z</time>
      </trkpt>
      <trkpt lat="44.23543" lon="0.8875">
        <ele>207.568</ele>
        <time>2017-08-16T10:12:25Z</time>
      </trkpt>
      <trkpt lat="44.23525" lon="0.88719">
        <ele>209.417</ele>
        <time>2017-08-16T10:12:35Z</time>
      </trkpt>
      <trkpt lat="44.23512" lon="0.88692">
        <ele>210.387</ele>
        <time>2017-08-16T10:12:44Z</time>
      </trkpt>
      <trkpt lat="44.23496" lon="0.88662">
        <ele>211.355</ele>
        <time>2017-08-16T10:12:54Z</time>
      </trkpt>
      <trkpt lat="44.2348" lon="0.88635">
        <ele>211.595</ele>
        <time>2017-08-16T10:13:03Z</time>
      </trkpt>
      <trkpt lat="44.2346" lon="0.88602">
        <ele>211.264</ele>
        <time>2017-08-16T10:13:14Z</time>
      </trkpt>
      <trkpt lat="44.2344" lon="0.88558">
        <ele>211.005</ele>
        <time>2017-08-16T10:13:24Z</time>
      </trkpt>
      <trkpt lat="44.23424" lon="0.88507">
        <ele>211.065</ele>
        <time>2017-08-16T10:13:33Z</time>
      </trkpt>
      <trkpt lat="44.23401" lon="0.88453">
        <ele>210.974</ele>
        <time>2017-08-16T10:13:43Z</time>
      </trkpt>
      <trkpt lat="44.23386" lon="0.88425">
        <ele>211.315</ele>
        <time>2017-08-16T10:13:49Z</time>
      </trkpt>
      <trkpt lat="44.23366" lon="0.88385">
        <ele>210.763</ele>
        <time>2017-08-16T10:13:56Z</time>
      </trkpt>
      <trkpt lat="44.23337" lon="0.8832">
        <ele>209.212</ele>
        <time>2017-08-16T10:14:06Z</time>
      </trkpt>
      <trkpt lat="44.23309" lon="0.88265">
        <ele>208.663</ele>
        <time>2017-08-16T10:14:14Z</time>
      </trkpt>
      <trkpt lat="44.23284" lon="0.88239">
        <ele>208.163</ele>
        <time>2017-08-16T10:14:19Z</time>
      </trkpt>
      <trkpt lat="44.23273" lon="0.88232">
        <ele>208.033</ele>
        <time>2017-08-16T10:14:21Z</time>
      </trkpt>
      <trkpt lat="44.23243" lon="0.88228">
        <ele>207.693</ele>
        <time>2017-08-16T10:14:26Z</time>
      </trkpt>
      <trkpt lat="44.23172" lon="0.88244">
        <ele>206.843</ele>
        <time>2017-08-16T10:14:38Z</time>
      </trkpt>
      <trkpt lat="44.23105" lon="0.88253">
        <ele>206.073</ele>
        <time>2017-08-16T10:14:48Z</time>
      </trkpt>
      <trkpt lat="44.23035" lon="0.88254">
        <ele>206.482</ele>
        <time>2017-08-16T10:14:59Z</time>
      </trkpt>
      <trkpt lat="44.22993" lon="0.88254">
        <ele>207.833</ele>
        <time>2017-08-16T10:15:07Z</time>
      </trkpt>
      <trkpt lat="44.22951" lon="0.88261">
        <ele>209.292</ele>
        <time>2017-08-16T10:15:17Z</time>
      </trkpt>
      <trkpt lat="44.2292" lon="0.88274">
        <ele>211.382</ele>
        <time>2017-08-16T10:15:26Z</time>
      </trkpt>
      <trkpt lat="44.22886" lon="0.88291">
        <ele>212.532</ele>
        <time>2017-08-16T10:15:37Z</time>
      </trkpt>
      <trkpt lat="44.22876" lon="0.88293">
        <ele>212.592</ele>
        <time>2017-08-16T10:15:40Z</time>
      </trkpt>
      <trkpt lat="44.22866" lon="0.88276">
        <ele>212.332</ele>
        <time>2017-08-16T10:15:44Z</time>
      </trkpt>
      <trkpt lat="44.22866" lon="0.8827">
        <ele>212.292</ele>
        <time>2017-08-16T10:15:45Z</time>
      </trkpt>
      <trkpt lat="44.22873" lon="0.88202">
        <ele>212.55</ele>
        <time>2017-08-16T10:15:56Z</time>
      </trkpt>
      <trkpt lat="44.22879" lon="0.88129">
        <ele>211.62</ele>
        <time>2017-08-16T10:16:06Z</time>
      </trkpt>
      <trkpt lat="44.22885" lon="0.88051">
        <ele>210.611</ele>
        <time>2017-08-16T10:16:16Z</time>
      </trkpt>
      <trkpt lat="44.22889" lon="0.87962">
        <ele>210.921</ele>
        <time>2017-08-16T10:16:27Z</time>
      </trkpt>
      <trkpt lat="44.22892" lon="0.87884">
        <ele>211.771</ele>
        <time>2017-08-16T10:16:38Z</time>
      </trkpt>
      <trkpt lat="44.22893" lon="0.87813">
        <ele>211.871</ele>
        <time>2017-08-16T10:16:49Z</time>
      </trkpt>
      <trkpt lat="44.2289" lon="0.8777">
        <ele>211.53</ele>
        <time>2017-08-16T10:16:56Z</time>
      </trkpt>
      <trkpt lat="44.22886" lon="0.87708">
        <ele>210.33</ele>
        <time>2017-08-16T10:17:06Z</time>
      </trkpt>
      <trkpt lat="44.22887" lon="0.87659">
        <ele>209.58</ele>
        <time>2017-08-16T10:17:13Z</time>
      </trkpt>
      <trkpt lat="44.22887" lon="0.87591">
        <ele>208.36</ele>
        <time>2017-08-16T10:17:22Z</time>
      </trkpt>
      <trkpt lat="44.22878" lon="0.87526">
        <ele>207.1</ele>
        <time>2017-08-16T10:17:30Z</time>
      </trkpt>
      <trkpt lat="44.22858" lon="0.87413">
        <ele>205.73</ele>
        <time>2017-08-16T10:17:43Z</time>
      </trkpt>
      <trkpt lat="44.22847" lon="0.87352">
        <ele>205.17</ele>
        <time>2017-08-16T10:17:50Z</time>
      </trkpt>
      <trkpt lat="44.22837" lon="0.87273">
        <ele>204.889</ele>
        <time>2017-08-16T10:17:59Z</time>
      </trkpt>
      <trkpt lat="44.22821" lon="0.87177">
        <ele>205.149</ele>
        <time>2017-08-16T10:18:11Z</time>
      </trkpt>
      <trkpt lat="44.22813" lon="0.87112">
        <ele>204.378</ele>
        <time>2017-08-16T10:18:19Z</time>
      </trkpt>
      <trkpt lat="44.22809" lon="0.87032">
        <ele>202.378</ele>
        <time>2017-08-16T10:18:28Z</time>
      </trkpt>
      <trkpt lat="44.22804" lon="0.86954">
        <ele>200.788</ele>
        <time>2017-08-16T10:18:36Z</time>
      </trkpt>
      <trkpt lat="44.22787" lon="0.86877">
        <ele>200.129</ele>
        <time>2017-08-16T10:18:44Z</time>
      </trkpt>
      <trkpt lat="44.22767" lon="0.86806">
        <ele>198.449</ele>
        <time>2017-08-16T10:18:52Z</time>
      </trkpt>
      <trkpt lat="44.22744" lon="0.8676">
        <ele>197.497</ele>
        <time>2017-08-16T10:18:58Z</time>
      </trkpt>
      <trkpt lat="44.22716" lon="0.86731">
        <ele>196.206</ele>
        <time>2017-08-16T10:19:03Z</time>
      </trkpt>
      <trkpt lat="44.2266" lon="0.86694">
        <ele>192.625</ele>
        <time>2017-08-16T10:19:11Z</time>
      </trkpt>
      <trkpt lat="44.22612" lon="0.86664">
        <ele>190.277</ele>
        <time>2017-08-16T10:19:17Z</time>
      </trkpt>
      <trkpt lat="44.2256" lon="0.86635">
        <ele>189.388</ele>
        <time>2017-08-16T10:19:24Z</time>
      </trkpt>
      <trkpt lat="44.22525" lon="0.86606">
        <ele>189.178</ele>
        <time>2017-08-16T10:19:30Z</time>
      </trkpt>
      <trkpt lat="44.22484" lon="0.86558">
        <ele>187.967</ele>
        <time>2017-08-16T10:19:38Z</time>
      </trkpt>
      <trkpt lat="44.22451" lon="0.86506">
        <ele>186.136</ele>
        <time>2017-08-16T10:19:45Z</time>
      </trkpt>
      <trkpt lat="44.22439" lon="0.86482">
        <ele>185.417</ele>
        <time>2017-08-16T10:19:48Z</time>
      </trkpt>
      <trkpt lat="44.22434" lon="0.86444">
        <ele>184.196</ele>
        <time>2017-08-16T10:19:52Z</time>
      </trkpt>
      <trkpt lat="44.22436" lon="0.86435">
        <ele>183.836</ele>
        <time>2017-08-16T10:19:53Z</time>
      </trkpt>
      <trkpt lat="44.22455" lon="0.86375">
        <ele>181.894</ele>
        <time>2017-08-16T10:19:59Z</time>
      </trkpt>
      <trkpt lat="44.22457" lon="0.86333">
        <ele>181.646</ele>
        <time>2017-08-16T10:20:03Z</time>
      </trkpt>
      <trkpt lat="44.22448" lon="0.8627">
        <ele>182.085</ele>
        <time>2017-08-16T10:20:10Z</time>
      </trkpt>
      <trkpt lat="44.22438" lon="0.86189">
        <ele>180.815</ele>
        <time>2017-08-16T10:20:19Z</time>
      </trkpt>
      <trkpt lat="44.22427" lon="0.86117">
        <ele>181.057</ele>
        <time>2017-08-16T10:20:27Z</time>
      </trkpt>
      <trkpt lat="44.22417" lon="0.86077">
        <ele>182.597</ele>
        <time>2017-08-16T10:20:33Z</time>
      </trkpt>
      <trkpt lat="44.22403" lon="0.86023">
        <ele>185.817</ele>
        <time>2017-08-16T10:20:43Z</time>
      </trkpt>
      <trkpt lat="44.22387" lon="0.85964">
        <ele>189.057</ele>
        <time>2017-08-16T10:20:54Z</time>
      </trkpt>
      <trkpt lat="44.22366" lon="0.85894">
        <ele>189.274</ele>
        <time>2017-08-16T10:21:06Z</time>
      </trkpt>
      <trkpt lat="44.22346" lon="0.85813">
        <ele>188.314</ele>
        <time>2017-08-16T10:21:18Z</time>
      </trkpt>
      <trkpt lat="44.22326" lon="0.85726">
        <ele>187.064</ele>
        <time>2017-08-16T10:21:30Z</time>
      </trkpt>
      <trkpt lat="44.22313" lon="0.85651">
        <ele>185.794</ele>
        <time>2017-08-16T10:21:39Z</time>
      </trkpt>
      <trkpt lat="44.22301" lon="0.85555">
        <ele>183.443</ele>
        <time>2017-08-16T10:21:49Z</time>
      </trkpt>
      <trkpt lat="44.22285" lon="0.85469">
        <ele>183.746</ele>
        <time>2017-08-16T10:21:58Z</time>
      </trkpt>
      <trkpt lat="44.22274" lon="0.85417">
        <ele>185.515</ele>
        <time>2017-08-16T10:22:05Z</time>
      </trkpt>
      <trkpt lat="44.22261" lon="0.85368">
        <ele>185.912</ele>
        <time>2017-08-16T10:22:13Z</time>
      </trkpt>
      <trkpt lat="44.22245" lon="0.85325">
        <ele>183.931</ele>
        <time>2017-08-16T10:22:19Z</time>
      </trkpt>
      <trkpt lat="44.22221" lon="0.85273">
        <ele>180.8</ele>
        <time>2017-08-16T10:22:25Z</time>
      </trkpt>
      <trkpt lat="44.22179" lon="0.85195">
        <ele>176.351</ele>
        <time>2017-08-16T10:22:33Z</time>
      </trkpt>
      <trkpt lat="44.22134" lon="0.8513">
        <ele>174.872</ele>
        <time>2017-08-16T10:22:40Z</time>
      </trkpt>
      <trkpt lat="44.22091" lon="0.85089">
        <ele>174.473</ele>
        <time>2017-08-16T10:22:46Z</time>
      </trkpt>
      <trkpt lat="44.22045" lon="0.85049">
        <ele>173.993</ele>
        <time>2017-08-16T10:22:53Z</time>
      </trkpt>
      <trkpt lat="44.22014" lon="0.85006">
        <ele>173.763</ele>
        <time>2017-08-16T10:23:00Z</time>
      </trkpt>
      <trkpt lat="44.21974" lon="0.84949">
        <ele>172.1</ele>
        <time>2017-08-16T10:23:10Z</time>
      </trkpt>
      <trkpt lat="44.21964" lon="0.84936">
        <ele>171.51</ele>
        <time>2017-08-16T10:23:13Z</time>
      </trkpt>
      <trkpt lat="44.21967" lon="0.84919">
        <ele>170.82</ele>
        <time>2017-08-16T10:23:17Z</time>
      </trkpt>
      <trkpt lat="44.21973" lon="0.84904">
        <ele>170.501</ele>
        <time>2017-08-16T10:23:20Z</time>
      </trkpt>
      <trkpt lat="44.21984" lon="0.84879">
        <ele>170.121</ele>
        <time>2017-08-16T10:23:25Z</time>
      </trkpt>
      <trkpt lat="44.22002" lon="0.84833">
        <ele>168.76</ele>
        <time>2017-08-16T10:23:35Z</time>
      </trkpt>
      <trkpt lat="44.22009" lon="0.84816">
        <ele>168.09</ele>
        <time>2017-08-16T10:23:38Z</time>
      </trkpt>
      <trkpt lat="44.22021" lon="0.84793">
        <ele>167.17</ele>
        <time>2017-08-16T10:23:42Z</time>
      </trkpt>
      <trkpt lat="44.22038" lon="0.84738">
        <ele>165.37</ele>
        <time>2017-08-16T10:23:49Z</time>
      </trkpt>
      <trkpt lat="44.2204" lon="0.84729">
        <ele>165.029</ele>
        <time>2017-08-16T10:23:50Z</time>
      </trkpt>
      <trkpt lat="44.22054" lon="0.84697">
        <ele>163.749</ele>
        <time>2017-08-16T10:23:54Z</time>
      </trkpt>
      <trkpt lat="44.22057" lon="0.84683">
        <ele>163.169</ele>
        <time>2017-08-16T10:23:56Z</time>
      </trkpt>
      <trkpt lat="44.2205" lon="0.84671">
        <ele>162.308</ele>
        <time>2017-08-16T10:23:58Z</time>
      </trkpt>
      <trkpt lat="44.22019" lon="0.84633">
        <ele>160.148</ele>
        <time>2017-08-16T10:24:04Z</time>
      </trkpt>
      <trkpt lat="44.22009" lon="0.8462">
        <ele>160.01</ele>
        <time>2017-08-16T10:24:06Z</time>
      </trkpt>
      <trkpt lat="44.21996" lon="0.84591">
        <ele>160.461</ele>
        <time>2017-08-16T10:24:11Z</time>
      </trkpt>
      <trkpt lat="44.21985" lon="0.8456">
        <ele>161.161</ele>
        <time>2017-08-16T10:24:18Z</time>
      </trkpt>
      <trkpt lat="44.21989" lon="0.84554">
        <ele>160.91</ele>
        <time>2017-08-16T10:24:23Z</time>
      </trkpt>
      <trkpt lat="44.21993" lon="0.84556">
        <ele>160.56</ele>
        <time>2017-08-16T10:24:29Z</time>
      </trkpt>
      <trkpt lat="44.21994" lon="0.84556">
        <ele>160.571</ele>
        <time>2017-08-16T10:24:32Z</time>
      </trkpt>
      <trkpt lat="44.21996" lon="0.84556">
        <ele>160.601</ele>
        <time>2017-08-16T10:24:38Z</time>
      </trkpt>
      <trkpt lat="44.21996" lon="0.84555">
        <ele>160.672</ele>
        <time>2017-08-16T10:24:42Z</time>
      </trkpt>
    </trkseg>
  </trk>
</gpx>